ログインしてさらにmixiを楽しもう

コメントを投稿して情報交換!
更新通知を受け取って、最新情報をゲット!

ホーム > コミュニティ > サークル、ゼミ > RJCCのMETAR・TAF 愛好会 > トピック一覧 > 【資料編】日々のMETAR 2...

RJCCのMETAR・TAF 愛好会コミュの【資料編】日々のMETAR 2018年01月01日〜2018年12月31日分

  • mixiチェック
  • このエントリーをはてなブックマークに追加

コミュ内全体

記録できた日々のMETAR報を貼っていきます。
時々データ抜けのあることがあります。
収集元でデータの欠落がある場合もありますのであくまで参考に願います。
(気が付いた部分は手修正をしてある場合もあります)

また、資料編ですのでお気づきな点や雑談は↓
http://mixi.jp/view_bbs.pl?id=49275149&comm_id=4753062
↑こちらへどうぞ お願いします

2018年01月01日 00h (UTC)〜 01月31日 24h(UTC) コメントNo 001〜086
2018年02月01日 00h (UTC)〜 02月28日 24h(UTC) コメントNo 087〜167
2018年03月01日 00h (UTC)〜 03月31日 24h(UTC) コメントNo 168〜250
2018年04月01日 00h (UTC)〜 04月30日 24h(UTC) コメントNo 251〜330
2018年05月01日 00h (UTC)〜 05月31日 24h(UTC) コメントNo 331〜
2018年06月01日 00h (UTC)〜 06月30日 24h(UTC) コメントNo 〜
2018年07月01日 00h (UTC)〜 07月31日 24h(UTC) コメントNo 〜
2018年08月01日 00h (UTC)〜 08月31日 24h(UTC) コメントNo 〜
2018年09月01日 00h (UTC)〜 09月30日 24h(UTC) コメントNo 〜
2018年10月01日 00h (UTC)〜 10月31日 24h(UTC) コメントNo 〜
2018年11月01日 00h (UTC)〜 11月30日 24h(UTC) コメントNo 〜
2018年12月01日 00h (UTC)〜 12月31日 24h(UTC) コメントNo 〜



2009年12月26日〜2010年12月31日分の分は↓
http://mixi.jp/view_bbs.pl?id=51133430&comm_id=4753062
2011年01月01日〜2011年12月31日分の分は↓
http://mixi.jp/view_bbs.pl?id=59038880&comm_id=4753062
2012年01月01日〜2012年12月31日分の分は↓
http://mixi.jp/view_bbs.pl?id=67034312&comm_id=4753062
2013年01月01日〜2013年12月31日分の分は↓
http://mixi.jp/view_bbs.pl?id=72710304&comm_id=4753062
2014年01月01日〜2014年12月31日分の分は↓
http://mixi.jp/view_bbs.pl?id=75482778&comm_id=4753062
2015年01月01日〜2015年12月16日分の分は↓
http://mixi.jp/view_bbs.pl?id=77499256&comm_id=4753062
2015年12月17日〜2015年12月31日分の分は↓
http://mixi.jp/view_bbs.pl?id=79198706&comm_id=4753062
2016年01月01日〜2016年11月30日分の分は↓
http://mixi.jp/view_bbs.pl?comm_id=4753062&id=79198682
2016年12月01日〜2016年12月31日分の分は↓
http://mixi.jp/view_bbs.pl?comm_id=4753062&id=81180137
2017年12月01日〜2017年12月31日分の分は↓
http://mixi.jp/view_bbs.pl?comm_id=4753062&id=81442107

コメント(380)

-2
RJCC 040900Z 16011KT 9999 FEW015 BKN/// 09/05 Q1005 RMK 1ST015 A2969
RJCC 040930Z 16010KT 9999 FEW015 BKN/// 08/05 Q1005 RMK 1ST015 A2970
RJCC 041000Z 14007KT 9999 FEW015 BKN070 08/05 Q1006 RMK 1ST015 7AC070 A2972
RJCC 041030Z 16008KT 9999 FEW015 BKN060 08/05 Q1006 RMK 1ST015 7CU060 A2973
RJCC 041100Z 19003KT 160V240 9999 FEW015 BKN050 09/04 Q1006 RMK 1ST015 7CU050 A2973
RJCC 041130Z 18008KT 9999 FEW015 SCT050 BKN100 08/04 Q1007 RMK 1ST015 4CU050 7AC100 A2974
RJCC 041200Z 19011KT 9999 FEW015 BKN100 08/03 Q1007 RMK 1ST015 7AC100 A2974
RJCC 041230Z 19011KT 9999 FEW015 BKN100 08/04 Q1007 RMK 1ST015 7AC100 A2975
RJCC 041300Z 19013KT 9999 FEW015 BKN100 08/04 Q1007 RMK 1ST015 7AC100 A2975
RJCC 041330Z 18012KT 9999 FEW015 BKN100 07/04 Q1007 RMK 1ST015 7AC100 A2975
RJCC 041400Z 18010KT 9999 FEW015 BKN120 07/04 Q1007 RMK 1ST015 7AC120 A2975
RJCC 041430Z 15005KT 120V180 9999 FEW015 BKN120 06/04 Q1007 RMK 1ST015 6AC120 A2974
RJCC 041500Z 15006KT 9999 FEW015 06/05 Q1006 RMK 1ST015 A2973
RJCC 041530Z 16009KT 9999 FEW015 BKN025 06/05 Q1006 RMK 1ST015 5CU025 A2973
RJCC 041600Z 16011KT 9999 FEW010 BKN013 BKN025 07/04 Q1006 RMK 1ST010 6ST013 7CU025 A2972
RJCC 041630Z 15008KT 9999 SCT012 BKN030 07/04 Q1006 RMK 3ST012 6CU030 A2972
RJCC 041700Z 16008KT 9999 FEW010 SCT013 BKN030 06/04 Q1006 RMK 1ST010 4ST013 7CU030 A2972
RJCC 041730Z 15010KT 9999 -SHRA FEW010 SCT015 BKN035 06/04 Q1006 RMK 1ST010 4ST015 6CU035 A2972
RJCC 041800Z 14008KT 9999 -SHRA FEW010 BKN012 BKN035 07/05 Q1006 RMK 1ST010 6ST012 7CU035 A2972
RJCC 041830Z 14011KT 9999 -SHRA FEW008 BKN010 BKN015 07/06 Q1006 RMK 1ST008 5ST010 7ST015 A2972
RJCC 041900Z 15010KT 9999 -SHRA FEW005 SCT008 BKN010 07/06 Q1006 RMK 1ST005 4ST008 7ST010 A2972
RJCC 041930Z 16008KT 8000 -SHRA FEW004 SCT006 BKN009 07/06 Q1006 RMK 1ST004 3ST006 7ST009 A2972
-3
RJCC 042000Z 17008KT 9999 -SHRA FEW003 BKN005 BKN007 07/06 Q1006 RMK 1ST003 5ST005 7ST007 A2972
RJCC 042019Z 15009KT 8000 FEW003 SCT005 BKN009 07/06 Q1006 RMK 1ST003 4ST005 7ST009 A2972
RJCC 042030Z 17010KT 9999 FEW003 SCT005 BKN010 07/06 Q1006 RMK 1ST003 4ST005 7ST010 A2973
RJCC 042100Z 17011KT 9999 -SHRA FEW003 SCT010 BKN070 07/06 Q1006 RMK 1ST003 3ST010 7AC070 A2973
RJCC 042130Z 18009KT 9999 FEW005 SCT050 BKN080 07/06 Q1007 RMK 1ST005 3CU050 7AC080 A2974
RJCC 042200Z 18008KT 9999 FEW005 SCT050 BKN080 08/06 Q1007 RMK 1ST005 3CU050 7AC080 A2974
RJCC 042230Z 19011KT 9999 FEW005 SCT050 BKN100 08/06 Q1007 RMK 1ST005 3CU050 7AC100 A2974
RJCC 042300Z 20015KT 9999 -SHRA FEW005 SCT050 BKN090 08/05 Q1007 RMK 1ST005 3CU050 7AC090 A2974
RJCC 042330Z 19012KT 9999 FEW008 SCT040 BKN080 09/05 Q1006 RMK 1ST008 3CU040 6AC080 A2973
2018年5月05日00-24UTC 新千歳空港METAR -1

RJCC 050000Z 20014KT 9999 FEW015 SCT020 BKN100 10/04 Q1006 RMK 1ST015 3CU020 6AC100 A2972
RJCC 050030Z 21015KT 9999 FEW015 SCT020 BKN070 10/04 Q1006 RMK 1ST015 3CU020 6AC070 A2972
RJCC 050100Z 19012KT 9999 FEW020 BKN050 BKN180 11/04 Q1006 RMK 2CU020 5CU050 6AC180 A2972
RJCC 050130Z 20013KT 9999 -SHRA FEW020 BKN040 BKN100 10/04 Q1006 RMK 1CU020 5CU040 6AC100 A2973
RJCC 050200Z 20012KT 9999 VCSH FEW020 BKN040 10/04 Q1006 RMK 1CU020 6CU040 A2973 SH NE
RJCC 050230Z 17010KT 9999 FEW020 BKN040 12/05 Q1006 RMK 1CU020 6CU040 A2972
RJCC 050300Z 17010KT 9999 FEW020 BKN045 10/04 Q1006 RMK 1CU020 6CU045 A2972
RJCC 050330Z 15007KT 9999 FEW020 BKN045 11/04 Q1006 RMK 1CU020 6CU045 A2972
RJCC 050346Z 26010KT 210V280 9999 FEW020 BKN040 11/04 Q1006 RMK 1CU020 5CU040 A2972
RJCC 050400Z 24014KT 9999 FEW020 SCT040 BKN/// 13/02 Q1006 RMK 1CU020 3CU040 A2971
RJCC 050430Z 24013KT 9999 FEW020 SCT045 BKN/// 13/02 Q1006 RMK 1CU020 4CU045 A2971
RJCC 050500Z 24014KT 9999 FEW030 SCT045 BKN/// 13/03 Q1006 RMK 1CU030 3CU045 A2971
RJCC 050530Z 25010KT 200V280 9999 -SHRA FEW015 BKN040 12/02 Q1006 RMK 1ST015 7CU040 A2972
RJCC 050600Z VRB08KT 9999 -SHRA FEW015 BKN040 11/02 Q1006 RMK 1ST015 7CU040 A2973
RJCC 050630Z 36007KT 9999 -SHRA FEW015 BKN040 10/03 Q1007 RMK 1ST015 7CU040 A2975
RJCC 050700Z 01005KT 9999 -SHRA FEW015 BKN040 10/03 Q1007 RMK 1ST015 7CU040 A2976
RJCC 050730Z 01005KT 9999 -SHRA FEW015 BKN040 10/04 Q1008 RMK 1ST015 7CU040 A2977
RJCC 050800Z 01007KT 9999 -SHRA FEW015 BKN035 BKN040 09/05 Q1008 RMK 1ST015 6CU035 6CU040 A2979
RJCC 050830Z 02006KT 9999 -SHRA FEW010 BKN030 BKN045 08/06 Q1009 RMK 1ST010 6CU030 7CU045 A2980
RJCC 050900Z 01004KT 9999 -SHRA FEW010 BKN030 BKN045 08/06 Q1009 RMK 1ST010 5CU030 7CU045 A2982
RJCC 050930Z 03004KT 350V060 9999 -SHRA FEW005 BKN040 BKN070 08/06 Q1010 RMK 1ST005 5CU040 7AC070 A2982
-2
RJCC 051000Z VRB02KT 9999 FEW005 SCT030 BKN070 07/06 Q1010 RMK 1ST005 3CU030 7AC070 A2984
RJCC 051030Z 09001KT 9999 FEW005 SCT045 BKN070 07/05 Q1011 RMK 1ST005 3CU045 7AC070 A2985
RJCC 051100Z 11003KT 060V140 9999 -SHRA FEW005 BKN050 BKN070 07/06 Q1011 RMK 1ST005 5CU050 7AC070 A2986
RJCC 051130Z 06003KT 360V110 9999 FEW005 SCT045 BKN070 07/05 Q1011 RMK 1ST005 3CU045 7AC070 A2987
RJCC 051200Z VRB01KT 9999 FEW005 BKN045 BKN070 07/05 Q1011 RMK 1ST005 5CU045 7AC070 A2988
RJCC 051230Z 07005KT 9999 -SHRA FEW005 SCT045 BKN070 07/06 Q1011 RMK 1ST005 3CU045 7AC070 A2987
RJCC 051300Z 06003KT 9999 FEW005 BKN070 07/06 Q1011 RMK 1ST005 7AC070 A2987
RJCC 051330Z VRB01KT 9999 FEW005 BKN070 07/05 Q1012 RMK 1ST005 7AC070 A2989
RJCC 051400Z 18002KT 9999 FEW010 SCT050 BKN070 07/05 Q1012 RMK 1ST010 3CU050 7AC070 A2989
RJCC 051430Z 08001KT 9999 FEW010 BKN070 06/06 Q1012 RMK 1ST010 7AC070 A2988
RJCC 051500Z VRB02KT 9999 FEW010 BKN070 06/06 Q1012 RMK 1ST010 7AC070 A2989
RJCC 051530Z 00000KT 9999 FEW005 SCT070 BKN/// 05/05 Q1011 RMK 1ST005 4AC070 A2988
RJCC 051600Z VRB01KT 9999 FEW005 BKN070 05/05 Q1012 RMK 1ST005 6AC070 A2989
RJCC 051630Z VRB02KT 9999 FEW005 BKN070 05/05 Q1012 RMK 1ST005 7AC070 A2989
RJCC 051700Z 00000KT 9999 FEW005 BKN070 05/05 Q1012 RMK 1ST005 7AC070 A2990
RJCC 051730Z VRB01KT 9999 FEW005 BKN070 05/05 Q1012 RMK 1ST005 7AC070 A2990
RJCC 051800Z 00000KT 9999 FEW005 SCT070 BKN/// 05/05 Q1012 RMK 1ST005 3AC070 A2990
RJCC 051830Z VRB02KT 9999 FEW005 BKN/// 04/04 Q1012 RMK 1ST005 A2990
RJCC 051900Z 15003KT 9999 BCFG FEW005 SCT160 BKN/// 04/04 Q1013 RMK 1ST005 3AC160 A2991
RJCC 051930Z 17003KT 9999 BCFG FEW005 SCT160 BKN/// 04/04 Q1012 RMK 1ST005 4AC160 A2990
RJCC 052000Z VRB02KT 9999 BCFG FEW005 BKN160 BKN/// 04/04 Q1012 RMK 1ST005 6AC160 A2991 2000S
RJCC 052030Z VRB01KT 9999 BCFG FEW005 BKN160 BKN/// 05/05 Q1012 RMK 1ST005 6AC160 A2990
-3
RJCC 052100Z VRB02KT 9999 PRFG FEW005 BKN150 BKN/// 05/05 Q1012 RMK 1ST005 6AC150 A2991 FG W
RJCC 052130Z 10003KT 060V130 9999 FEW005 BKN150 BKN/// 06/05 Q1012 RMK 1ST005 6AC150 A2991
RJCC 052200Z 11004KT 070V160 9999 FEW010 BKN150 BKN/// 08/06 Q1012 RMK 1ST010 6AC150 A2990
RJCC 052230Z 18003KT 150V220 9999 FEW010 SCT100 BKN/// 08/06 Q1012 RMK 1ST010 4AC100 A2990
RJCC 052300Z 17004KT 130V200 9999 FEW010 SCT090 BKN/// 09/06 Q1012 RMK 1ST010 3AC090 A2990
RJCC 052330Z 16004KT 140V200 9999 FEW015 BKN090 BKN/// 09/05 Q1012 RMK 1ST015 6AC090 A2989
2018年5月06日00-24UTC 新千歳空港METAR -1

RJCC 060000Z 17005KT 150V210 9999 FEW025 BKN080 BKN/// 10/06 Q1012 RMK 1CU025 6AC080 A2989
RJCC 060030Z 17008KT 9999 FEW025 BKN080 10/05 Q1012 RMK 1CU025 7AC080 A2989
RJCC 060100Z 19011KT 9999 FEW025 BKN070 09/05 Q1012 RMK 1CU025 7AC070 A2990
RJCC 060130Z 19010KT 9999 FEW025 BKN070 09/04 Q1012 RMK 1CU025 7AC070 A2990
RJCC 060200Z 18013KT 9999 -SHRA FEW020 SCT050 BKN070 08/06 Q1012 RMK 1CU020 3CU050 7AC070 A2989
RJCC 060230Z 17010KT 9999 -SHRA FEW008 SCT050 BKN070 08/06 Q1012 RMK 1ST008 3CU050 7AC070 A2988
RJCC 060300Z 13006KT 9999 -SHRA FEW007 BKN050 07/06 Q1011 RMK 2ST007 7CU050 A2987
RJCC 060330Z 16006KT 8000 -SHRA FEW005 BKN006 BKN050 07/06 Q1011 RMK 1ST005 5ST006 7CU050 A2986
RJCC 060400Z 17004KT 140V210 7000 -SHRA FEW004 SCT005 BKN006 07/07 Q1010 RMK 1ST004 3ST005 6ST006 A2985
RJCC 060430Z 20007KT 5000 SHRA BR FEW003 SCT005 BKN006 07/07 Q1010 RMK 1ST003 3ST005 6ST006 A2985
RJCC 060500Z 19006KT 5000 SHRA BR FEW003 BKN006 BKN020 07/07 Q1010 RMK 2ST003 5ST006 7CU020 A2985
RJCC 060530Z 19006KT 5000 SHRA BR FEW002 SCT003 BKN005 07/06 Q1010 RMK 1ST002 4ST003 5ST005 A2984
RJCC 060600Z 14004KT 100V160 5000 -SHRA BR FEW002 SCT003 BKN005 07/07 Q1009 RMK 1ST002 4ST003 5ST005 A2982
RJCC 060630Z 17003KT 5000 -SHRA BR FEW002 SCT003 BKN005 07/07 Q1009 RMK 1ST002 4ST003 6ST005 A2981
RJCC 060700Z VRB01KT 5000 -SHRA BR FEW002 SCT003 BKN005 07/07 Q1009 RMK 1ST002 3ST003 6ST005 A2979
RJCC 060730Z 27008KT 240V310 4900 -SHRA BR FEW002 SCT003 BKN005 07/07 Q1009 RMK 1ST002 3ST003 5ST005 A2980
RJCC 060733Z 27008KT 4000 SHRA BR FEW002 SCT003 BKN006 07/07 Q1009 RMK 1ST002 3ST003 5ST006 A2980
RJCC 060800Z 29007KT 5000 -SHRA BR FEW003 SCT005 BKN008 07/07 Q1009 RMK 1ST003 3ST005 6ST008 A2980
RJCC 060824Z 27005KT 240V300 6000 -SHRA FEW003 BKN010 07/07 Q1009 RMK 1ST003 7ST010 A2980
RJCC 060830Z 25005KT 130V300 6000 -SHRA FEW003 BKN010 07/07 Q1009 RMK 1ST003 7ST010 A2980
-2
RJCC 060844Z 19005KT 170V230 4900 -SHRA BR FEW003 BKN007 BKN010 07/07 Q1009 RMK 1ST003 5ST007 7ST010 A2980
RJCC 060900Z 19005KT 170V230 5000 -SHRA BR FEW003 SCT007 BKN012 07/07 Q1009 RMK 1ST003 3ST007 7ST012 A2980
RJCC 060930Z 21004KT 180V250 8000 -SHRA FEW003 SCT006 BKN014 07/06 Q1009 RMK 1ST003 3ST006 7ST014 A2980
RJCC 061000Z 25005KT 6000 -SHRA FEW003 SCT005 BKN010 07/06 Q1009 RMK 1ST003 3ST005 7ST010 A2979
RJCC 061030Z 26006KT 220V280 6000 -SHRA FEW003 SCT007 BKN013 07/06 Q1009 RMK 1ST003 3ST007 7ST013 A2980
RJCC 061100Z 25004KT 200V280 9999 -SHRA FEW003 SCT007 BKN014 07/06 Q1009 RMK 1ST003 3ST007 7ST014 A2981
RJCC 061130Z VRB02KT 9999 -SHRA FEW003 SCT007 BKN013 07/06 Q1009 RMK 1ST003 3ST007 7ST013 A2980
RJCC 061200Z VRB01KT 6000 -SHRA FEW003 BKN012 07/06 Q1009 RMK 1ST003 7ST012 A2981
RJCC 061230Z 36003KT 6000 -SHRA FEW003 BKN012 07/07 Q1009 RMK 1ST003 7ST012 A2981
RJCC 061300Z 34003KT 9999 -SHRA FEW005 BKN013 07/07 Q1009 RMK 1ST005 7ST013 A2982
RJCC 061330Z 36004KT 9999 -SHRA FEW004 BKN014 07/07 Q1009 RMK 1ST004 7ST014 A2981
RJCC 061400Z 35007KT 6000 -SHRA FEW005 BKN010 07/07 Q1009 RMK 1ST005 7ST010 A2982
RJCC 061430Z 34009KT 3000 -SHRA BR FEW002 BKN004 08/08 Q1009 RMK 1ST002 7ST004 A2982
RJCC 061500Z 35010KT 8000 FEW002 BKN005 08/08 Q1009 RMK 1ST002 7ST005 A2981
RJCC 061530Z 34009KT 9999 FEW002 SCT005 BKN018 08/08 Q1009 RMK 1ST002 4ST005 7ST018 A2980
RJCC 061600Z 34010KT 8000 FEW003 BKN018 08/08 Q1009 RMK 1ST003 7ST018 A2980
RJCC 061630Z 34011KT 8000 FEW003 BKN010 BKN020 08/07 Q1009 RMK 1ST003 6ST010 7ST020 A2981
RJCC 061700Z 34010KT 9999 FEW003 BKN008 08/07 Q1009 RMK 1ST003 7ST008 A2981
RJCC 061730Z 33010KT 9999 FEW003 SCT006 BKN008 08/07 Q1009 RMK 1ST003 3ST006 7ST008 A2982
-3
RJCC 061800Z 34009KT 9999 FEW005 SCT007 BKN030 08/07 Q1009 RMK 1ST005 3ST007 7CU030 A2982
RJCC 061830Z 36009KT 9999 FEW005 BKN012 08/07 Q1010 RMK 1ST005 7ST012 A2982
RJCC 061900Z 36007KT 9999 -SHRA FEW005 BKN010 BKN012 08/07 Q1010 RMK 1ST005 5ST010 7ST012 A2983
RJCC 061930Z 35006KT 9999 FEW005 BKN010 BKN012 08/07 Q1010 RMK 1ST005 5ST010 7ST012 A2984
RJCC 062000Z 36008KT 9999 FEW005 BKN014 08/07 Q1010 RMK 1ST005 7ST014 A2984
RJCC 062030Z 36007KT 9999 -SHRA FEW005 BKN015 08/07 Q1010 RMK 2ST005 7ST015 A2985
RJCC 062100Z 34010KT 9999 FEW005 BKN020 09/07 Q1010 RMK 1ST005 6ST020 A2985
RJCC 062130Z 35011KT 9999 FEW015 09/07 Q1011 RMK 2ST015 A2985
RJCC 062200Z 34015KT 9999 FEW015 10/07 Q1011 RMK 1ST015 A2986
RJCC 062230Z 34015KT 9999 FEW010 BKN015 10/06 Q1011 RMK 1ST010 6ST015 A2986
RJCC 062300Z 34015KT 9999 FEW010 BKN018 10/06 Q1011 RMK 1ST010 6ST018 A2986
RJCC 062330Z 35012KT 9999 FEW010 BKN020 12/06 Q1011 RMK 1ST010 6CU020 A2985
2018年5月07日00-24UTC 新千歳空港METAR -1

RJCC 070000Z 35012KT 320V030 9999 FEW010 SCT020 BKN050 12/06 Q1011 RMK 1ST010 3CU020 5CU050 A2985
RJCC 070030Z 35011KT 320V030 9999 FEW020 BKN050 12/05 Q1011 RMK 2CU020 6CU050 A2986
RJCC 070100Z 35013KT 9999 FEW020 BKN050 14/07 Q1011 RMK 2CU020 5CU050 A2987
RJCC 070130Z 36014KT 9999 FEW025 SCT050 14/05 Q1011 RMK 1CU025 4CU050 A2986
RJCC 070200Z 35012KT 320V030 9999 FEW030 SCT060 14/06 Q1011 RMK 1CU030 3CU060 A2986
RJCC 070230Z 33014KT 9999 FEW030 SCT060 15/06 Q1011 RMK 1CU030 4CU060 A2986
RJCC 070300Z 34010KT 9999 FEW035 SCT060 15/06 Q1011 RMK 1CU035 3CU060 A2986
RJCC 070330Z 33011KT 9999 FEW035 SCT060 16/06 Q1011 RMK 1CU035 3CU060 A2986
RJCC 070400Z 34011KT 9999 FEW030 SCT060 16/06 Q1010 RMK 1CU030 3CU060 A2985
RJCC 070430Z 33012KT 300V010 9999 FEW035 16/06 Q1011 RMK 2CU035 A2985
RJCC 070500Z 35011KT 9999 FEW035 SCT/// 16/05 Q1010 RMK 1CU035 A2985
RJCC 070530Z 35012KT 9999 FEW035 BKN/// 16/06 Q1010 RMK 1CU035 A2985
RJCC 070600Z 35012KT 9999 FEW030 BKN/// 16/05 Q1010 RMK 1CU030 A2985
RJCC 070630Z 35013KT 9999 FEW030 BKN/// 16/06 Q1010 RMK 1CU030 A2984
RJCC 070700Z 36014KT 9999 FEW030 BKN/// 15/05 Q1011 RMK 1CU030 A2986
RJCC 070730Z 35014KT 9999 FEW025 BKN/// 14/05 Q1011 RMK 1CU025 A2986
RJCC 070800Z 36010KT 330V030 9999 FEW020 BKN/// 14/05 Q1011 RMK 1CU020 A2987 TAIL WIND 10KT OBS AT 0743Z ON FNA RWY01R 500FT IN DES B738
RJCC 070828Z 16008KT 150V230 9999 FEW015 SCT040 BKN/// 10/07 Q1012 RMK 1ST015 3CU040 A2989
RJCC 070830Z 16009KT 9999 FEW015 SCT040 BKN/// 10/07 Q1012 RMK 1ST015 3CU040 A2989
RJCC 070900Z 19008KT 9999 FEW010 BKN/// 09/07 Q1012 RMK 1ST010 A2990
RJCC 070930Z 17009KT 9999 FEW006 BKN008 BKN/// 09/07 Q1012 RMK 1ST006 5ST008 A2991
RJCC 070940Z 18010KT 9999 FEW006 SCT008 BKN/// 08/06 Q1013 RMK 1ST006 4ST008 A2992
RJCC 071000Z 18009KT 9999 FEW008 SCT010 BKN015 08/06 Q1013 RMK 1ST008 3ST010 6ST015 A2993
RJCC 071030Z 17009KT 9999 FEW008 SCT012 BKN018 08/06 Q1014 RMK 1ST008 3ST012 6ST018 A2995
-2
RJCC 071100Z 17007KT 130V190 9999 FEW008 SCT012 BKN018 08/06 Q1014 RMK 1ST008 3ST012 6ST018 A2996
RJCC 071130Z 15006KT 9999 FEW008 SCT015 BKN020 08/06 Q1014 RMK 1ST008 3ST015 7ST020 A2996
RJCC 071200Z 15007KT 9999 FEW010 SCT015 BKN025 08/06 Q1014 RMK 1ST010 3ST015 7CU025 A2996
RJCC 071230Z 16007KT 9999 FEW008 SCT010 BKN025 07/05 Q1014 RMK 1ST008 4ST010 6CU025 A2996
RJCC 071300Z 18007KT 9999 FEW008 SCT010 BKN030 07/05 Q1014 RMK 1ST008 4ST010 6CU030 A2997
RJCC 071330Z 19007KT 9999 FEW008 BKN010 BKN030 07/05 Q1014 RMK 1ST008 5ST010 6CU030 A2997
RJCC 071400Z 15006KT 9999 FEW008 BKN010 BKN030 07/05 Q1014 RMK 2ST008 5ST010 6CU030 A2997
RJCC 071430Z 15006KT 9999 FEW008 SCT010 BKN025 07/05 Q1015 RMK 2ST008 4ST010 6CU025 A2997
RJCC 071500Z 15006KT 9999 FEW008 BKN025 07/05 Q1015 RMK 1ST008 7CU025 A2997
RJCC 071530Z 15005KT 9999 FEW008 BKN025 07/05 Q1015 RMK 1ST008 7CU025 A2997
RJCC 071600Z 15005KT 9999 FEW008 BKN030 07/05 Q1015 RMK 1ST008 7CU030 A2997
RJCC 071630Z 16005KT 9999 FEW010 BKN035 07/04 Q1015 RMK 1ST010 7CU035 A2997
RJCC 071700Z 16006KT 9999 FEW010 SCT025 BKN035 07/04 Q1015 RMK 1ST010 4CU025 6CU035 A2997
RJCC 071730Z 15005KT 9999 FEW010 BKN025 07/04 Q1015 RMK 1ST010 7CU025 A2997
RJCC 071800Z 18006KT 9999 FEW015 SCT025 BKN035 07/04 Q1015 RMK 1ST015 3CU025 6CU035 A2997
RJCC 071830Z 18007KT 9999 FEW015 BKN035 07/05 Q1015 RMK 1ST015 7CU035 A2998
RJCC 071900Z 19009KT 9999 FEW015 BKN035 07/05 Q1015 RMK 1ST015 7CU035 A2998
RJCC 071930Z 18007KT 9999 FEW015 BKN040 07/04 Q1015 RMK 1ST015 5CU040 A2999
-3
RJCC 072000Z 16006KT 9999 FEW015 BKN040 07/04 Q1015 RMK 1ST015 5CU040 A2999
RJCC 072030Z 17007KT 9999 FEW015 07/04 Q1015 RMK 1ST015 A2999
RJCC 072100Z 19007KT 9999 FEW015 SCT035 07/05 Q1016 RMK 1ST015 4CU035 A3000
RJCC 072130Z 20007KT 9999 FEW015 BKN035 08/05 Q1016 RMK 1ST015 6CU035 A3001
RJCC 072200Z 19005KT 160V220 9999 FEW015 BKN035 08/05 Q1016 RMK 1ST015 6CU035 A3001
RJCC 072230Z 19005KT 140V220 9999 FEW015 BKN035 09/05 Q1016 RMK 2ST015 6CU035 A3002
RJCC 072300Z 15006KT 120V190 9999 FEW015 SCT018 BKN035 09/05 Q1016 RMK 1ST015 4ST018 6CU035 A3002
RJCC 072330Z 18003KT 100V280 9999 FEW012 SCT015 BKN018 09/05 Q1016 RMK 1ST012 3ST015 6ST018 A3003
2018年5月08日00-24UTC 新千歳空港METAR -1

RJCC 080000Z VRB02KT 9999 FEW015 BKN018 10/05 Q1016 RMK 1ST015 6ST018 A3003
RJCC 080030Z VRB02KT 9999 FEW015 BKN020 10/05 Q1016 RMK 1ST015 7CU020 A3003
RJCC 080100Z 06003KT 010V110 9999 FEW018 BKN025 10/05 Q1017 RMK 1ST018 7CU025 A3003
RJCC 080130Z 17008KT 9999 FEW025 BKN030 BKN040 10/05 Q1017 RMK 1CU025 6CU030 7CU040 A3003
RJCC 080200Z 18009KT 9999 FEW025 BKN030 BKN040 10/05 Q1017 RMK 1CU025 6CU030 7CU040 A3003
RJCC 080230Z 16010KT 140V210 9999 FEW025 BKN040 11/05 Q1017 RMK 2CU025 7CU040 A3003
RJCC 080300Z 16010KT 9999 FEW020 BKN045 12/05 Q1017 RMK 2CU020 7CU045 A3003
RJCC 080330Z 16009KT 100V200 9999 FEW020 SCT025 BKN045 12/05 Q1016 RMK 1CU020 3CU025 7CU045 A3003
RJCC 080400Z 18009KT 150V210 9999 FEW020 SCT025 BKN040 12/05 Q1017 RMK 1CU020 4CU025 6CU040 A3003
RJCC 080430Z 19011KT 160V220 9999 FEW020 SCT030 13/06 Q1017 RMK 1CU020 4CU030 A3004
RJCC 080500Z 19010KT 170V240 9999 FEW020 SCT030 13/06 Q1017 RMK 1CU020 3CU030 A3003
RJCC 080530Z 19010KT 9999 FEW030 SCT050 12/05 Q1017 RMK 1CU030 3CU050 A3004
RJCC 080600Z 19013KT 9999 FEW030 12/06 Q1017 RMK 1CU030 A3004
RJCC 080630Z 18014KT 9999 FEW010 10/06 Q1017 RMK 1ST010 A3005
RJCC 080700Z 17014KT 9999 FEW010 BKN012 09/05 Q1018 RMK 1ST010 7ST012 A3007
RJCC 080730Z 18014KT 9999 FEW008 SCT010 BKN014 08/05 Q1018 RMK 1ST008 4ST010 7ST014 A3008
RJCC 080800Z 18012KT 9999 FEW008 SCT010 BKN014 08/05 Q1018 RMK 1ST008 4ST010 7ST014 A3009
RJCC 080830Z 18013KT 9999 FEW008 SCT010 BKN014 07/05 Q1019 RMK 1ST008 4ST010 7ST014 A3010
RJCC 080900Z 17012KT 9999 FEW008 BKN010 BKN014 07/04 Q1019 RMK 1ST008 5ST010 7ST014 A3011
RJCC 080930Z 18010KT 9999 FEW008 BKN010 BKN014 07/04 Q1019 RMK 1ST008 5ST010 7ST014 A3012
RJCC 081000Z 17010KT 9999 FEW008 BKN010 BKN014 07/04 Q1020 RMK 1ST008 5ST010 7ST014 A3013
RJCC 081030Z 17011KT 9999 FEW008 BKN010 BKN014 07/04 Q1020 RMK 1ST008 5ST010 7ST014 A3014
-2
RJCC 081100Z 17009KT 9999 FEW008 BKN012 BKN015 06/04 Q1021 RMK 1ST008 5ST012 7ST015 A3015
RJCC 081130Z 16008KT 9999 FEW008 BKN012 BKN015 07/04 Q1021 RMK 1ST008 5ST012 7ST015 A3015
RJCC 081200Z 17008KT 9999 FEW008 BKN012 BKN015 07/04 Q1021 RMK 1ST008 5ST012 7ST015 A3016
RJCC 081230Z 13006KT 8000 -DZ FEW006 SCT010 BKN012 06/05 Q1021 RMK 1ST006 3ST010 7ST012 A3016
RJCC 081237Z 13005KT 4900 -DZ BR FEW006 SCT010 BKN012 06/05 Q1021 RMK 1ST006 4ST010 7ST012 A3016
RJCC 081300Z 15007KT 3500 -DZ BR FEW005 BKN008 BKN012 06/05 Q1021 RMK 2ST005 5ST008 7ST012 A3016
RJCC 081330Z 17007KT 5000 -DZ BR FEW005 SCT010 BKN012 06/05 Q1021 RMK 1ST005 3ST010 7ST012 A3016
RJCC 081400Z 19007KT 7000 -DZ FEW006 SCT010 BKN012 06/05 Q1021 RMK 1ST006 3ST010 6ST012 A3017
RJCC 081430Z 18006KT 7000 -DZ FEW006 SCT012 BKN025 06/05 Q1021 RMK 1ST006 4ST012 7CU025 A3017
RJCC 081500Z 21006KT 7000 -DZ FEW008 SCT015 BKN020 06/05 Q1021 RMK 1ST008 3ST015 7ST020 A3018
RJCC 081530Z 17005KT 7000 -DZ FEW006 SCT012 BKN020 06/05 Q1021 RMK 1ST006 3ST012 7ST020 A3017
RJCC 081600Z 17004KT 8000 FEW006 SCT012 BKN018 06/05 Q1021 RMK 1ST006 4ST012 7ST018 A3017
RJCC 081630Z 18004KT 8000 FEW006 SCT012 BKN015 06/05 Q1021 RMK 1ST006 3ST012 7ST015 A3016
RJCC 081700Z 16004KT 9999 FEW006 SCT012 BKN015 06/04 Q1021 RMK 1ST006 4ST012 7ST015 A3016
RJCC 081730Z 12003KT 9999 FEW006 SCT012 BKN015 06/04 Q1021 RMK 1ST006 4ST012 7ST015 A3017
RJCC 081800Z 13005KT 9999 FEW008 SCT012 BKN016 06/04 Q1021 RMK 1ST008 4ST012 7ST016 A3017
RJCC 081830Z 14006KT 9999 FEW010 SCT012 BKN016 06/04 Q1021 RMK 1ST010 3ST012 7ST016 A3017
RJCC 081900Z 14007KT 9999 FEW010 BKN018 06/03 Q1021 RMK 1ST010 7ST018 A3018
RJCC 081930Z 16010KT 9999 FEW012 BKN018 BKN020 06/03 Q1022 RMK 1ST012 5ST018 7ST020 A3018
RJCC 082000Z 16009KT 9999 FEW012 BKN018 BKN020 06/04 Q1022 RMK 2ST012 5ST018 7CU020 A3019
RJCC 082030Z 15008KT 9999 -DZ FEW009 SCT010 BKN020 06/04 Q1022 RMK 1ST009 3ST010 7CU020 A3020
-3
RJCC 082100Z 16007KT 9999 FEW009 SCT012 BKN025 06/04 Q1022 RMK 1ST009 3ST012 7CU025 A3020
RJCC 082130Z 15007KT 9999 FEW010 SCT015 BKN030 06/03 Q1022 RMK 1ST010 3ST015 7CU030 A3020
RJCC 082200Z 17009KT 9999 FEW010 BKN015 BKN030 06/03 Q1023 RMK 1ST010 5ST015 7CU030 A3022
RJCC 082230Z 16009KT 9999 FEW010 BKN015 BKN025 07/03 Q1023 RMK 1ST010 5ST015 7CU025 A3021
RJCC 082300Z 17011KT 9999 FEW010 BKN015 BKN025 07/03 Q1023 RMK 1ST010 5ST015 7CU025 A3021
RJCC 082330Z 17010KT 9999 FEW010 BKN015 BKN020 07/03 Q1022 RMK 1ST010 5ST015 7CU020 A3021
2018年5月09日00-24UTC 新千歳空港METAR -1

RJCC 090000Z 16008KT 130V200 9999 FEW012 BKN015 BKN025 08/03 Q1022 RMK 1ST012 5ST015 7CU025 A3020
RJCC 090030Z 19009KT 9999 FEW012 BKN018 08/03 Q1022 RMK 1ST012 7ST018 A3020
RJCC 090100Z 18010KT 9999 FEW012 BKN018 08/02 Q1022 RMK 1ST012 7ST018 A3019
RJCC 090130Z 17010KT 9999 FEW012 BKN020 09/03 Q1022 RMK 1ST012 7CU020 A3019
RJCC 090200Z 19011KT 160V220 9999 FEW012 BKN020 08/03 Q1022 RMK 1ST012 7CU020 A3020
RJCC 090230Z 19010KT 9999 FEW012 BKN020 08/03 Q1022 RMK 1ST012 7CU020 A3019
RJCC 090300Z 18010KT 150V210 9999 FEW015 BKN020 09/03 Q1022 RMK 1ST015 7CU020 A3019
RJCC 090330Z 17011KT 9999 FEW015 BKN020 09/03 Q1022 RMK 1ST015 7CU020 A3018
RJCC 090400Z 19012KT 9999 FEW015 BKN020 BKN030 09/03 Q1022 RMK 1ST015 6CU020 7CU030 A3018
RJCC 090430Z 17012KT 9999 FEW015 BKN020 BKN030 09/03 Q1021 RMK 1ST015 6CU020 7CU030 A3017
RJCC 090500Z 17012KT 9999 FEW015 BKN020 BKN030 09/03 Q1021 RMK 1ST015 6CU020 7CU030 A3017
RJCC 090530Z 18013KT 9999 FEW015 BKN020 BKN030 08/03 Q1021 RMK 1ST015 6CU020 7CU030 A3017
RJCC 090600Z 18012KT 9999 FEW012 BKN018 BKN030 08/03 Q1021 RMK 1ST012 5ST018 7CU030 A3017
RJCC 090630Z 19012KT 9999 FEW012 BKN018 BKN030 08/03 Q1021 RMK 1ST012 5ST018 7CU030 A3016
RJCC 090700Z 18013KT 9999 FEW012 BKN018 BKN030 07/03 Q1021 RMK 1ST012 6ST018 7CU030 A3017
RJCC 090730Z 16011KT 9999 FEW010 BKN015 07/03 Q1021 RMK 1ST010 7ST015 A3016
RJCC 090800Z 17010KT 9999 FEW010 BKN015 07/03 Q1021 RMK 1ST010 7ST015 A3016
RJCC 090830Z 19011KT 9999 FEW010 SCT015 BKN018 06/03 Q1021 RMK 1ST010 4ST015 6ST018 A3016
RJCC 090900Z 18013KT 9999 FEW010 BKN012 06/03 Q1021 RMK 1ST010 7ST012 A3016
RJCC 090930Z 17011KT 9999 FEW008 SCT010 BKN012 06/03 Q1021 RMK 1ST008 4ST010 7ST012 A3017
RJCC 091000Z 16011KT 9999 FEW008 SCT010 BKN012 06/03 Q1021 RMK 1ST008 4ST010 7ST012 A3017
RJCC 091030Z 16011KT 9999 FEW008 SCT012 BKN015 06/03 Q1021 RMK 1ST008 4ST012 7ST015 A3017
-2
RJCC 091100Z 16010KT 9999 FEW008 SCT010 BKN015 06/03 Q1021 RMK 1ST008 4ST010 7ST015 A3017
RJCC 091130Z 15009KT 9999 FEW008 SCT012 BKN015 06/03 Q1021 RMK 1ST008 3ST012 7ST015 A3018
RJCC 091200Z 15008KT 9999 FEW008 SCT012 BKN018 06/03 Q1021 RMK 1ST008 4ST012 7ST018 A3017
RJCC 091230Z 13008KT 9999 FEW010 SCT012 BKN018 05/03 Q1021 RMK 1ST010 4ST012 7ST018 A3016
RJCC 091300Z 13007KT 9999 FEW010 SCT012 BKN018 05/03 Q1021 RMK 1ST010 3ST012 7ST018 A3016
RJCC 091330Z 13007KT 9999 FEW010 BKN018 05/03 Q1021 RMK 1ST010 7ST018 A3015
RJCC 091400Z 14007KT 9999 FEW010 BKN018 05/03 Q1021 RMK 1ST010 7ST018 A3015
RJCC 091430Z 15006KT 9999 FEW010 BKN018 05/03 Q1020 RMK 1ST010 7ST018 A3014
RJCC 091500Z 15006KT 9999 FEW010 SCT014 BKN018 05/03 Q1020 RMK 1ST010 3ST014 7ST018 A3014
RJCC 091530Z 14006KT 9999 FEW010 BKN018 05/03 Q1020 RMK 1ST010 7ST018 A3014
RJCC 091600Z 14006KT 9999 FEW010 SCT013 BKN018 05/03 Q1020 RMK 1ST010 3ST013 7ST018 A3014
RJCC 091630Z 15006KT 9999 FEW010 SCT013 BKN018 05/03 Q1020 RMK 1ST010 4ST013 7ST018 A3013
RJCC 091700Z 12005KT 9999 FEW010 BKN020 05/03 Q1020 RMK 1ST010 7ST020 A3013
RJCC 091730Z 12004KT 9999 FEW015 BKN020 05/02 Q1020 RMK 1ST015 7ST020 A3013
RJCC 091800Z 14004KT 9999 FEW015 BKN020 05/02 Q1020 RMK 1ST015 7ST020 A3013
RJCC 091830Z 13003KT 9999 FEW015 BKN020 05/03 Q1020 RMK 1ST015 7SC020 A3013
RJCC 091900Z 13004KT 9999 FEW015 BKN020 05/03 Q1020 RMK 1ST015 7SC020 A3013
RJCC 091930Z 14005KT 9999 FEW015 BKN020 05/02 Q1020 RMK 1ST015 7SC020 A3012
RJCC 092000Z 13005KT 9999 FEW015 BKN020 05/02 Q1020 RMK 1ST015 7SC020 A3012
RJCC 092030Z VRB02KT 9999 FEW015 BKN020 05/02 Q1019 RMK 1ST015 7SC020 A3011
-3
RJCC 092100Z 14004KT 9999 FEW015 BKN020 06/02 Q1019 RMK 1ST015 7SC020 A3011
RJCC 092130Z 19006KT 9999 FEW015 BKN020 06/02 Q1019 RMK 1ST015 6SC020 A3010
RJCC 092200Z 20005KT 160V250 9999 FEW015 SCT020 07/01 Q1019 RMK 1ST015 3SC020 A3010
RJCC 092230Z 18006KT 9999 FEW018 07/01 Q1019 RMK 1ST018 A3009
RJCC 092300Z 15006KT 120V190 9999 SCT025 08/01 Q1018 RMK 3CU025 A3008
RJCC 092330Z 17006KT 110V250 9999 FEW025 SCT030 09/01 Q1018 RMK 1CU025 3CU030 A3007
2018年5月10日00-24UTC 新千歳空港METAR -1

RJCC 100000Z 17008KT 130V200 9999 FEW025 SCT030 09/01 Q1018 RMK 1CU025 4CU030 A3007
RJCC 100030Z 15008KT 110V180 9999 FEW025 09/01 Q1017 RMK 2CU025 A3006
RJCC 100100Z 17007KT 130V220 9999 FEW025 SCT030 10/02 Q1017 RMK 1CU025 3CU030 A3005
RJCC 100130Z 18006KT 120V250 9999 FEW030 BKN/// 11/03 Q1017 RMK 2CU030 A3004
RJCC 100200Z 16007KT 120V240 9999 FEW030 BKN/// 10/02 Q1017 RMK 1CU030 A3003
RJCC 100230Z 20010KT 9999 FEW030 BKN/// 11/03 Q1016 RMK 1CU030 A3002
RJCC 100300Z 15008KT 090V180 9999 FEW025 BKN/// 11/02 Q1016 RMK 1CU025 A3001
RJCC 100330Z 17007KT 110V210 9999 FEW025 BKN/// 11/02 Q1015 RMK 1CU025 A3000
RJCC 100400Z 16012KT 9999 FEW025 BKN/// 12/02 Q1015 RMK 1CU025 A2998
RJCC 100430Z 19011KT 160V230 9999 FEW025 BKN140 BKN/// 11/03 Q1015 RMK 1CU025 5AC140 A2998
RJCC 100500Z 19012KT 9999 FEW025 BKN120 BKN/// 10/02 Q1014 RMK 1CU025 6AC120 A2997
RJCC 100530Z 19012KT 9999 FEW025 BKN100 BKN/// 10/03 Q1014 RMK 1CU025 6AC100 A2996
RJCC 100600Z 18010KT 140V230 9999 FEW025 BKN110 BKN/// 10/02 Q1014 RMK 1CU025 5AC110 A2995
RJCC 100630Z 17007KT 130V210 9999 FEW025 BKN040 BKN/// 11/03 Q1014 RMK 1CU025 5CU040 A2995
RJCC 100700Z 15007KT 9999 FEW025 SCT030 BKN040 11/04 Q1014 RMK 1CU025 3CU030 6CU040 A2994
RJCC 100730Z 16005KT 9999 FEW015 SCT030 BKN035 10/04 Q1013 RMK 1ST015 3CU030 6CU035 A2994
RJCC 100800Z 18006KT 9999 FEW015 BKN035 10/04 Q1013 RMK 1ST015 7CU035 A2993
RJCC 100830Z VRB02KT 9999 FEW020 BKN025 BKN035 09/04 Q1013 RMK 1CU020 6CU025 7CU035 A2994
RJCC 100900Z 01007KT 340V070 9999 FEW020 BKN022 BKN035 09/04 Q1013 RMK 1CU020 6CU022 7CU035 A2993
RJCC 100930Z 36009KT 9999 FEW020 BKN030 BKN070 10/05 Q1013 RMK 1CU020 5CU030 7AC070 A2993
RJCC 101000Z 36007KT 9999 FEW015 BKN020 BKN050 09/05 Q1013 RMK 1ST015 5CU020 7CU050 A2993
RJCC 101030Z 36007KT 9999 FEW015 BKN020 BKN050 09/05 Q1013 RMK 1ST015 5CU020 7CU050 A2994
RJCC 101100Z 36005KT 9999 FEW015 BKN020 BKN040 09/05 Q1013 RMK 1ST015 5CU020 7CU040 A2994
-2
RJCC 101130Z 36005KT 9999 FEW015 BKN020 BKN040 09/05 Q1014 RMK 1ST015 6CU020 7CU040 A2994
RJCC 101200Z 36005KT 9999 -SHRA SCT020 BKN035 09/05 Q1013 RMK 3CU020 7CU035 A2994
RJCC 101230Z 36005KT 9999 FEW020 SCT035 08/05 Q1013 RMK 2CU020 3CU035 A2993
RJCC 101300Z 01003KT 9999 FEW020 08/05 Q1013 RMK 2CU020 A2992
RJCC 101330Z 35003KT 9999 FEW015 07/04 Q1013 RMK 1ST015 A2992
RJCC 101400Z 21005KT 9999 FEW010 BKN015 07/05 Q1013 RMK 1ST010 7ST015 A2992
RJCC 101430Z VRB02KT 9999 FEW010 SCT020 BKN070 06/04 Q1013 RMK 1ST010 3CU020 7AC070 A2991
RJCC 101500Z 16004KT 9999 FEW010 SCT070 06/04 Q1012 RMK 1ST010 3AC070 A2990
RJCC 101530Z 17004KT 9999 FEW010 BKN070 05/04 Q1012 RMK 1ST010 7AC070 A2990
RJCC 101600Z 15005KT 9999 FEW010 BKN070 05/04 Q1011 RMK 1ST010 6AC070 A2988
RJCC 101630Z 13003KT CAVOK 05/04 Q1011 RMK A2987
RJCC 101700Z 15004KT CAVOK 03/03 Q1011 RMK A2986
RJCC 101730Z 13003KT 080V160 9999 FEW015 04/04 Q1010 RMK 1ST015 A2984
RJCC 101800Z 16006KT 9999 FEW015 BKN060 04/04 Q1010 RMK 1ST015 5CU060 A2982
RJCC 101830Z 14004KT 9999 -SHRA FEW015 SCT050 BKN070 05/04 Q1009 RMK 1ST015 4CU050 6AC070 A2982
RJCC 101900Z 14007KT 9999 FEW020 SCT040 BKN080 05/04 Q1009 RMK 1CU020 4CU040 5AC080 A2980
RJCC 101930Z 17008KT 9999 -SHRA FEW015 BKN030 BKN080 05/05 Q1009 RMK 1ST015 5CU030 6AC080 A2981
RJCC 102000Z 13008KT 8000 R19R/P2000N R19L/P2000N SHRA FEW015 BKN030 BKN060 06/06 Q1008 RMK 1ST015 5CU030 6CU060 A2978
RJCC 102005Z 13008KT 9999 R19R/P2000N R19L/P2000N -SHRA FEW015 SCT030 BKN060 06/06 Q1008 RMK 1ST015 4CU030 6CU060 A2978
RJCC 102030Z 13008KT 9999 FEW015 BKN030 06/06 Q1008 RMK 1ST015 6CU030 A2978
-3
RJCC 102100Z 09006KT 060V130 9999 -SHRA FEW010 BKN030 07/06 Q1008 RMK 1ST010 7CU030 A2979
RJCC 102130Z 14013KT 9999 -SHRA FEW005 SCT030 07/07 Q1007 RMK 1ST005 3CU030 A2976
RJCC 102200Z 15012KT 9999 FEW005 SCT030 08/07 Q1007 RMK 1ST005 4CU030 A2976
RJCC 102230Z 15011KT 9999 FEW005 BKN030 09/07 Q1007 RMK 1ST005 5CU030 A2975
RJCC 102300Z 14013KT 9999 FEW015 11/08 Q1007 RMK 1ST015 A2974
RJCC 102330Z 14013KT 9999 FEW012 SCT030 11/07 Q1006 RMK 1ST012 3CU030 A2972
2018年5月11日00-24UTC 新千歳空港METAR -1

RJCC 110000Z 13012KT 9999 FEW015 14/09 Q1006 RMK 1ST015 A2971
RJCC 110030Z 18004KT 120V280 9999 FEW015 16/07 Q1006 RMK 1ST015 A2971
RJCC 110037Z 24010KT 9999 FEW015 17/07 Q1006 RMK 1ST015 A2971
RJCC 110100Z 24013KT 9999 FEW020 17/06 Q1005 RMK 1CU020 A2970
RJCC 110130Z 24011KT 210V270 9999 FEW020 18/07 Q1005 RMK 1CU020 A2969
RJCC 110200Z 25012KT 220V280 9999 FEW020 19/07 Q1005 RMK 1CU020 A2968
RJCC 110230Z 25014KT 230V290 9999 FEW030 19/06 Q1004 RMK 1CU030 A2967
RJCC 110300Z 26016KT 9999 FEW030 20/06 Q1004 RMK 1CU030 A2966
RJCC 110330Z 26016KT 9999 FEW030 20/06 Q1004 RMK 1CU030 A2966
RJCC 110400Z 25014KT 210V280 9999 FEW030 20/07 Q1004 RMK 1CU030 A2965
RJCC 110430Z 24015KT 220V280 9999 FEW030 21/07 Q1003 RMK 1CU030 A2964
RJCC 110500Z 24018KT 9999 FEW030 21/07 Q1004 RMK 1CU030 A2965
RJCC 110530Z 22015KT 9999 FEW030 21/07 Q1003 RMK 1CU030 A2964
RJCC 110600Z 24016KT 9999 FEW030 21/07 Q1003 RMK 1CU030 A2964
RJCC 110630Z 25013KT 9999 FEW030 21/07 Q1003 RMK 1CU030 A2964
RJCC 110700Z 21014KT 9999 FEW030 19/08 Q1004 RMK 1CU030 A2965
RJCC 110730Z 24016KT 9999 FEW030 19/08 Q1004 RMK 1CU030 A2966
RJCC 110800Z 18012KT 9999 FEW030 16/08 Q1004 RMK 1CU030 A2966
RJCC 110830Z 20008KT 170V240 9999 FEW030 15/09 Q1004 RMK 1CU030 A2967
RJCC 110900Z 20009KT 9999 FEW030 14/08 Q1005 RMK 1CU030 A2968
RJCC 110930Z 21012KT 9999 FEW030 14/08 Q1005 RMK 1CU030 A2969
RJCC 111000Z 19008KT 9999 FEW030 13/08 Q1005 RMK 1CU030 A2969
RJCC 111030Z 18006KT 140V210 9999 FEW030 12/08 Q1006 RMK 1CU030 A2972
RJCC 111100Z 18008KT 9999 FEW030 SCT090 11/08 Q1006 RMK 1CU030 3AC090 A2972
RJCC 111130Z 11008KT 9999 FEW030 BKN100 11/08 Q1006 RMK 1CU030 5AC100 A2972
-2
RJCC 111200Z 12008KT 9999 FEW030 BKN100 10/08 Q1006 RMK 1CU030 5AC100 A2973
RJCC 111230Z 12009KT 9999 FEW030 SCT080 10/08 Q1006 RMK 1CU030 3AC080 A2973
RJCC 111300Z 12008KT 9999 FEW030 SCT100 10/08 Q1006 RMK 1CU030 4AC100 A2973
RJCC 111330Z 12009KT 9999 FEW030 10/08 Q1006 RMK 1CU030 A2973
RJCC 111400Z 12008KT 9999 FEW030 09/08 Q1006 RMK 1CU030 A2973
RJCC 111430Z 13007KT 9999 FEW030 09/08 Q1007 RMK 1CU030 A2974
RJCC 111500Z 13009KT 9999 FEW030 09/08 Q1007 RMK 1CU030 A2974
RJCC 111530Z 13008KT 9999 FEW030 09/08 Q1007 RMK 1CU030 A2974
RJCC 111600Z 14010KT 9999 FEW030 SCT090 09/08 Q1007 RMK 1CU030 3AC090 A2974
RJCC 111630Z 12005KT 090V150 9999 FEW030 09/07 Q1007 RMK 1CU030 A2974
RJCC 111700Z 13005KT 9999 FEW030 09/07 Q1007 RMK 1CU030 A2975
RJCC 111730Z 15003KT 9999 FEW030 09/07 Q1007 RMK 1CU030 A2975
RJCC 111800Z VRB02KT 9999 FEW030 09/07 Q1007 RMK 1CU030 A2975
RJCC 111830Z VRB02KT 9999 FEW030 07/06 Q1007 RMK 1CU030 A2975
RJCC 111900Z 18002KT 8000 FEW015 06/05 Q1007 RMK 1ST015 A2976
RJCC 111930Z 20004KT 9999 FEW015 06/05 Q1008 RMK 1ST015 A2977
RJCC 112000Z 17002KT 9999 FEW015 07/06 Q1008 RMK 1ST015 A2978
RJCC 112030Z VRB02KT 9999 FEW015 08/07 Q1009 RMK 1ST015 A2980
RJCC 112100Z 16006KT 9999 FEW020 10/08 Q1009 RMK 1CU020 A2980
RJCC 112130Z 15008KT 9999 FEW020 11/08 Q1009 RMK 1CU020 A2980
RJCC 112200Z 16009KT 9999 FEW030 12/09 Q1009 RMK 1CU030 A2981
RJCC 112230Z 15006KT 9999 FEW040 13/08 Q1009 RMK 1CU040 A2982
RJCC 112300Z 16005KT 9999 FEW040 15/09 Q1009 RMK 1CU040 A2982
RJCC 112330Z VRB04KT 9999 FEW040 SCT/// 16/09 Q1010 RMK 1CU040 A2982
2018年5月12日00-24UTC 新千歳空港METAR -1

RJCC 120000Z 16004KT 120V210 9999 FEW040 BKN/// 17/08 Q1010 RMK 1CU040 A2982
RJCC 120030Z 17005KT 130V230 9999 FEW040 BKN/// 19/09 Q1010 RMK 1CU040 A2983
RJCC 120100Z 18006KT 130V220 9999 FEW040 SCT/// 19/09 Q1010 RMK 1CU040 A2983
RJCC 120130Z VRB02KT 9999 FEW040 SCT/// 20/08 Q1010 RMK 1CU040 A2982
RJCC 120200Z 14003KT 070V210 9999 FEW040 SCT/// 21/07 Q1010 RMK 1CU040 A2982
RJCC 120230Z VRB03KT 9999 FEW040 BKN/// 22/07 Q1009 RMK 1CU040 A2982
RJCC 120300Z VRB04KT 9999 FEW040 BKN/// 23/08 Q1009 RMK 1CU040 A2982
RJCC 120330Z VRB03KT 9999 FEW040 BKN/// 23/07 Q1009 RMK 1CU040 A2982
RJCC 120400Z VRB04KT 9999 FEW040 BKN/// 23/08 Q1009 RMK 1CU040 A2982
RJCC 120409Z 17010KT 110V200 9999 FEW040 BKN/// 23/07 Q1009 RMK 1CU040 A2982
RJCC 120430Z 16012KT 9999 FEW040 BKN/// 23/07 Q1009 RMK 1CU040 A2982
RJCC 120500Z 17010KT 9999 FEW040 BKN/// 22/05 Q1009 RMK 1CU040 A2981
RJCC 120530Z 16008KT 120V180 9999 FEW040 BKN/// 23/07 Q1009 RMK 1CU040 A2981
RJCC 120600Z 16011KT 9999 FEW040 BKN/// 22/07 Q1009 RMK 1CU040 A2982
RJCC 120630Z 17009KT 9999 FEW040 BKN/// 22/08 Q1009 RMK 1CU040 A2982
RJCC 120700Z 16009KT 9999 FEW040 BKN/// 21/07 Q1009 RMK 1CU040 A2982
RJCC 120730Z 15008KT 9999 FEW040 BKN/// 20/08 Q1010 RMK 1CU040 A2983
RJCC 120800Z 16006KT 9999 FEW040 BKN/// 19/08 Q1010 RMK 1CU040 A2983
RJCC 120830Z 15007KT 9999 FEW040 BKN/// 18/08 Q1010 RMK 1CU040 A2984
RJCC 120900Z 14007KT 9999 FEW040 BKN/// 17/08 Q1010 RMK 1CU040 A2985
RJCC 120930Z 15007KT 9999 FEW040 BKN/// 15/08 Q1011 RMK 1CU040 A2986
RJCC 121000Z 13005KT 9999 FEW040 BKN/// 14/08 Q1011
RJCC 121030Z 14005KT 9999 FEW030 BKN/// 13/08 Q1011
RJCC 121100Z 12004KT 9999 FEW030 BKN/// 13/08 Q1012 RMK 1CU030 A2988
RJCC 121130Z 13006KT 9999 FEW030 BKN/// 12/08 Q1012 RMK 1CU030 A2989
-2
RJCC 121200Z 15007KT 9999 FEW030 BKN/// 12/08 Q1012 RMK 1CU030 A2990
RJCC 121230Z 17006KT 9999 FEW030 BKN/// 11/08 Q1012 RMK 1CU030 A2991
RJCC 121300Z 13004KT 090V160 9999 FEW030 BKN/// 11/08 Q1012 RMK 1CU030 A2990
RJCC 121330Z 13010KT 9999 FEW030 SCT100 BKN/// 11/08 Q1012 1CU030 3AC100 A2990
RJCC 121400Z 12008KT 9999 FEW030 BKN100 BKN/// 12/08 Q1012 1CU030 5AC100 A2990
RJCC 121430Z 15009KT 9999 FEW030 BKN170 12/08 Q1012 RMK 1CU030 7AC170 A2989
RJCC 121500Z 17008KT 9999 FEW030 BKN160 BKN/// 11/08 Q1012 RMK 1CU030 5AC160 A2990
RJCC 121530Z 16008KT 9999 FEW030 BKN150 11/08 Q1012 RMK 1CU030 7AC150 A2989
RJCC 121600Z 15004KT 9999 FEW030 BKN130 11/08 Q1012 RMK 1CU030 7AC130 A2988
RJCC 121630Z 16004KT 9999 FEW030 BKN130 11/08 Q1011 RMK 1CU030 7AC130 A2988
RJCC 121700Z 19006KT 9999 FEW030 BKN110 11/08 Q1012 RMK 1CU030 7AC110 A2989
RJCC 121730Z 16005KT 9999 FEW030 BKN120 11/08 Q1011 RMK 1CU030 7AC120 A2988
RJCC 121800Z 16007KT 9999 FEW030 BKN120 11/09 Q1011 RMK 1CU030 7AC120 A2987
RJCC 121830Z 15005KT 9999 FEW030 BKN100 11/09 Q1011 RMK 1CU030 7AC100 A2987
RJCC 121900Z 15005KT 9999 FEW030 BKN090 11/09 Q1011 RMK 1CU030 7AC090 A2987
RJCC 121930Z 17005KT 9999 FEW030 BKN100 11/09 Q1012 RMK 1CU030 7AC100 A2988
RJCC 122000Z 16004KT 9999 FEW030 BKN100 11/09 Q1011 RMK 1CU030 7AC100 A2988
RJCC 122030Z 17006KT 9999 FEW030 BKN090 12/09 Q1011 RMK 1CU030 7AC090 A2987
RJCC 122100Z 17008KT 9999 FEW030 BKN080 BKN120 13/09 Q1011 RMK 1CU030 5AC080 7AC120 A2988
RJCC 122130Z 17010KT 9999 FEW030 BKN080 13/09 Q1011 RMK 1CU030 7AC080 A2988
RJCC 122200Z 16011KT 9999 -SHRA FEW030 BKN080 13/09 Q1011 RMK 1CU030 7AC080 A2988
RJCC 122230Z 15008KT 9999 -SHRA FEW030 BKN080 13/10 Q1012 RMK 1CU030 7AC080 A2988
RJCC 122300Z 15008KT 9999 -SHRA FEW030 BKN070 14/10 Q1012 RMK 1CU030 7AC070 A2989
RJCC 122330Z 14007KT 9999 -SHRA FEW040 BKN060 BKN080 14/10 Q1012 RMK 1CU040 5CU060 7AC080 A2989
2018年5月13日00-24UTC 新千歳空港METAR -1

RJCC 130000Z 15006KT 9999 -SHRA FEW040 BKN060 BKN080 14/10 Q1012 RMK 1CU040 5CU060 7AC080 A2988
RJCC 130030Z 15008KT 9999 -SHRA FEW040 SCT060 BKN080 15/11 Q1011 RMK 1CU040 4CU060 7AC080 A2987
RJCC 130100Z 17012KT 9999 -SHRA FEW040 BKN060 BKN080 14/12 Q1011 RMK 1CU040 5CU060 7AC080 A2988
RJCC 130130Z 17009KT 8000 -SHRA FEW035 BKN060 BKN080 13/11 Q1011 RMK 1CU035 5CU060 7AC080 A2987
RJCC 130200Z 14006KT 9999 -SHRA FEW050 SCT060 BKN080 13/12 Q1010 RMK 1CU050 3CU060 7AC080 A2985
RJCC 130230Z 13006KT 090V170 9999 -SHRA FEW030 SCT060 BKN080 15/12 Q1010 RMK 1CU030 3CU060 7AC080 A2983
RJCC 130300Z 17010KT 9999 -SHRA FEW025 BKN060 BKN080 14/11 Q1009 RMK 1CU025 5CU060 7AC080 A2982
RJCC 130330Z 19009KT 9999 -SHRA FEW012 BKN070 14/12 Q1009 RMK 1ST012 7AC070 A2981
RJCC 130400Z 18009KT 9999 -SHRA FEW012 BKN070 14/11 Q1009 RMK 1ST012 7AC070 A2979
RJCC 130430Z 19012KT 8000 -SHRA FEW010 BKN070 13/11 Q1009 RMK 1ST010 7AC070 A2980
RJCC 130500Z 18014KT 7000 -SHRA FEW006 BKN070 12/10 Q1009 RMK 1ST006 7AC070 A2980
RJCC 130530Z 17011KT 6000 -SHRA FEW005 BKN080 12/10 Q1008 RMK 1ST005 7AC080 A2977
RJCC 130600Z 14007KT 7000 -SHRA FEW005 SCT008 BKN100 12/11 Q1007 RMK 1ST005 3ST008 7AC100 A2976
RJCC 130630Z 16009KT 7000 -SHRA FEW005 BKN040 BKN080 12/11 Q1007 RMK 1ST005 5CU040 7AC080 A2974
RJCC 130700Z 17011KT 9999 -SHRA FEW030 BKN070 BKN100 12/10 Q1006 RMK 1CU030 5AC070 7AC100 A2973
RJCC 130730Z 17009KT 9999 -SHRA FEW030 BKN070 BKN100 12/09 Q1006 RMK 1CU030 6AC070 7AC100 A2973
RJCC 130800Z 16006KT 9999 -SHRA FEW030 BKN050 BKN080 12/09 Q1006 RMK 1CU030 6CU050 7AC080 A2972
RJCC 130830Z 20004KT 160V220 9999 -SHRA FEW030 BKN050 BKN080 12/09 Q1006 RMK 1CU030 5CU050 7AC080 A2972
RJCC 130900Z 19004KT 9999 -SHRA FEW030 BKN060 BKN080 12/09 Q1006 RMK 1CU030 5CU060 7AC080 A2971
RJCC 130930Z 19005KT 9999 -SHRA FEW030 BKN050 BKN080 12/08 Q1006 RMK 1CU030 5CU050 7AC080 A2971
RJCC 131000Z 19006KT 9999 -SHRA FEW030 BKN050 BKN080 12/08 Q1005 RMK 1CU030 5CU050 7AC080 A2970
-2
RJCC 131030Z 18005KT 9999 -SHRA FEW025 BKN060 BKN080 12/09 Q1005 RMK 1CU025 5CU060 7AC080 A2970
RJCC 131100Z 17005KT 9999 -SHRA FEW010 BKN012 BKN060 12/09 Q1005 RMK 2ST010 5ST012 6CU060 A2970
RJCC 131130Z 15006KT 9999 -SHRA FEW006 BKN010 BKN012 12/09 Q1005 RMK 2ST006 5ST010 7ST012 A2970
RJCC 131200Z 14007KT 8000 -SHRA BR FEW006 SCT009 BKN012 11/10 Q1005 RMK 1ST006 3ST009 7ST012 A2969 4000SE
RJCC 131230Z 15008KT 6000 -SHRA FEW003 SCT005 BKN009 11/10 Q1005 RMK 1ST003 4ST005 7ST009 A2970
RJCC 131235Z 15009KT 4000 SHRA BR FEW003 BKN005 BKN008 11/10 Q1005 RMK 1ST003 5ST005 7ST008 A2969
RJCC 131300Z 15008KT 2500 -SHRA BR FEW002 SCT003 BKN004 11/10 Q1005 RMK 1ST002 3ST003 7ST004 A2968
RJCC 131330Z 16006KT 2500 -SHRA BR FEW001 BKN003 BKN004 11/10 Q1005 RMK 1ST001 5ST003 7ST004 A2968
RJCC 131400Z 16006KT 2500 -SHRA BR FEW001 BKN002 BKN003 11/10 Q1004 RMK 1ST001 5ST002 7ST003 A2967
RJCC 131430Z 16006KT 1500 R19R/P2000N R19L/P2000N -SHRA BR FEW001 BKN002 BKN003 10/10 Q1004 RMK 1ST001 5ST002 7ST003 A2966
RJCC 131500Z 18005KT 1000 R19R/2000N R19L/2000D -DZ BR FEW001 BKN002 BKN003 10/10 Q1004 RMK 1ST001 5ST002 7ST003 A2965
RJCC 131530Z 17004KT 0900 R01L/P2000N R01R/2000N FG VV002 10/10 Q1003 RMK A2964
RJCC 131600Z 19005KT 0800 R01L/1800D R01R/1500D -SHRA FG VV002 10/10 Q1003 RMK A2963
RJCC 131630Z 17004KT 0900 R19R/1400VP2000U R19L/1200V1600N -SHRA FG VV002 10/10 Q1003
RJCC 131700Z 16004KT 0400 R19R/1000V1500D R19L/1100U -SHRA FG VV002 10/10 Q1003 RMK A2963
RJCC 131730Z 14004KT 0300 R19R/0650V0900D R19L/0650N -SHRA FG VV002 10/10 Q1003 RMK A2962
RJCC 131737Z 15005KT 0300 R19R/0650V0900U R19L/0700N -SHRA FG VV002 10/10 Q1003 RMK A2962
RJCC 131800Z 10003KT 0300 R19R/0800V1200D R19L/0800V1100D FG VV002 10/10 Q1003 RMK A2962
RJCC 131830Z 12004KT 0300 R19R/0600V0900D R19L/0600N FG VV002 10/10 Q1003 RMK A2962
RJCC 131843Z 12004KT 0300 R19R/0650V0900U R19L/0650V1200U FG VV002 10/10 Q1002 RMK A2961
RJCC 131900Z 14005KT 0300 R19R/P2000N R19L/P2000N FG VV002 10/10 Q1002 RMK A2961
-3
RJCC 131930Z 17003KT 0300 R19R/1000V1600U R19L/1000V1600U FG VV002 10/10 Q1003 RMK A2962
RJCC 132000Z 17002KT 0400 R19R/P2000N R19L/P2000N FG VV003 11/11 Q1003 RMK A2962
RJCC 132030Z 19002KT 0700 R19R/P2000N R19L/P2000N FG VV003 11/11 Q1003 RMK A2963
RJCC 132048Z 16003KT 0900 R19R/P2000N R19L/P2000N FG VV002 11/11 Q1003 RMK A2964 1800E
RJCC 132100Z 14002KT 1000 R19R/P2000N R19L/P2000N BCFG BR FEW001 BKN002 BKN003 11/11 Q1003 RMK 2ST001 5ST002 7ST003 A2963 2000NE-SE
RJCC 132119Z VRB01KT 1600 BCFG BR FEW001 SCT002 BKN003 11/11 Q1003 RMK 1ST001 3ST002 7ST003 A2964
RJCC 132130Z 16002KT 2400 BCFG BR FEW001 SCT002 BKN003 11/11 Q1003 RMK 1ST001 3ST002 7ST003 A2964
RJCC 132144Z VRB01KT 3200 BCFG BR FEW001 SCT002 BKN003 12/12 Q1003 RMK 1ST001 3ST002 6ST003 A2964
RJCC 132200Z VRB01KT 3500 BR FEW002 SCT003 BKN004 12/12 Q1003 RMK 1ST002 3ST003 5ST004 A2964
RJCC 132220Z VRB01KT 5000 BR FEW003 SCT004 BKN006 12/12 Q1004 RMK 1ST003 3ST004 6ST006 A2965
RJCC 132230Z 32003KT 290V350 6000 FEW003 SCT004 BKN006 13/12 Q1004 RMK 1ST003 3ST004 7ST006 A2965
RJCC 132300Z 36008KT 8000 FEW004 SCT006 BKN008 13/12 Q1004 RMK 1ST004 4ST006 7ST008 A2965
RJCC 132330Z 34012KT 8000 FEW006 BKN007 14/12 Q1004 RMK 1ST006 7ST007 A2965
2018年5月14日00-24UTC 新千歳空港METAR -1

RJCC 140000Z 01011KT 8000 FEW006 BKN008 14/11 Q1003 RMK 1ST006 5ST008 A2964
RJCC 140012Z 36012KT 9999 FEW006 BKN010 15/12 Q1003 RMK 1ST006 6ST010 A2964
RJCC 140030Z 34012KT 9999 FEW006 BKN008 14/12 Q1004 RMK 1ST006 6ST008 A2965
RJCC 140100Z 01012KT 9999 FEW006 BKN009 15/11 Q1003 RMK 1ST006 6ST009 A2964
RJCC 140111Z 01012KT 9999 FEW006 BKN012 15/11 Q1003 RMK 1ST006 7ST012 A2964
RJCC 140130Z 34013KT 9999 FEW008 BKN011 15/11 Q1003 RMK 1ST008 7ST011 A2964
RJCC 140200Z 35014KT 9999 FEW006 BKN009 15/11 Q1003 RMK 1ST006 7ST009 A2963
RJCC 140230Z 34017KT 9999 FEW006 BKN009 15/11 Q1003 RMK 1ST006 6ST009 A2963
RJCC 140300Z 35018KT 9999 FEW006 SCT009 BKN011 15/10 Q1003 RMK 1ST006 3ST009 6ST011 A2963
RJCC 140330Z 36015KT 9999 FEW008 BKN012 16/10 Q1003 RMK 1ST008 6ST012 A2964
RJCC 140400Z 36016KT 9999 FEW008 BKN012 15/10 Q1003 RMK 1ST008 5ST012 A2963
RJCC 140430Z 36016KT 9999 FEW008 BKN013 15/10 Q1003 RMK 1ST008 5ST013 A2963
RJCC 140500Z 36016KT 9999 FEW008 SCT015 15/10 Q1003 RMK 1ST008 3ST015 A2964
RJCC 140530Z 01016KT 9999 FEW010 15/09 Q1003 RMK 1ST010 A2964
RJCC 140600Z 35016KT 9999 FEW010 16/10 Q1003 RMK 1ST010 A2964
RJCC 140630Z 36015KT 9999 FEW010 16/10 Q1004 RMK 1ST010 A2965
RJCC 140700Z 35017KT 9999 FEW010 15/09 Q1004 RMK 1ST010 A2966
RJCC 140730Z 36018KT 9999 FEW010 14/09 Q1004 RMK 1ST010 A2966
RJCC 140800Z 36017KT 9999 FEW008 BKN010 12/09 Q1004 RMK 1ST008 6ST010 A2967
RJCC 140819Z 36016KT 9999 FEW006 BKN009 12/09 Q1004 RMK 1ST006 6ST009 A2967
RJCC 140830Z 34018KT 9999 FEW006 BKN009 12/09 Q1005 RMK 1ST006 7ST009 A2968
RJCC 140900Z 35017KT 9999 FEW005 BKN008 12/09 Q1005 RMK 1ST005 7ST008 A2969
RJCC 140930Z 34014KT 9999 FEW005 BKN007 11/09 Q1005 RMK 1ST005 7ST007 A2969
RJCC 141000Z 35014KT 9999 FEW004 SCT005 BKN006 10/09 Q1005 RMK 1ST004 3ST005 7ST006 A2970
RJCC 141021Z 35014KT 9999 FEW004 BKN005 BKN006 10/09 Q1006 RMK 1ST004 5ST005 7ST006 A2972
RJCC 141030Z 35015KT 9999 FEW004 BKN005 BKN006 10/09 Q1006 RMK 1ST004 6ST005 7ST006 A2972
-2
RJCC 141046Z 36012KT 9999 FEW003 BKN004 BKN006 10/09 Q1006 RMK 1ST003 5ST004 7ST006 A2972
RJCC 141100Z 35011KT 9999 -DZ FEW003 BKN004 10/09 Q1006 RMK 1ST003 7ST004 A2973
RJCC 141130Z 35011KT 9999 -DZ FEW003 BKN004 10/09 Q1006 RMK 1ST003 7ST004 A2973
RJCC 141200Z 36010KT 8000 -DZ FEW003 BKN004 09/08 Q1007 RMK 1ST003 7ST004 A2974
RJCC 141230Z 35011KT 8000 -DZ FEW002 BKN003 09/08 Q1007 RMK 1ST002 7ST003 A2975
RJCC 141300Z 34012KT 5000 -DZ BR FEW002 BKN003 09/08 Q1007 RMK 1ST002 7ST003 A2976
RJCC 141311Z 35013KT 5000 -DZ BR FEW001 BKN002 BKN003 09/08 Q1007 RMK 1ST001 5ST002 7ST003 A2976
RJCC 141322Z 35012KT 4900 -DZ BR FEW001 BKN002 BKN003 09/08 Q1007 RMK 1ST001 6ST002 7ST003 A2976
RJCC 141330Z 34011KT 3100 -DZ BR FEW001 BKN002 09/08 Q1007 RMK 2ST001 7ST002 A2976
RJCC 141400Z 33011KT 3200 -DZ BR FEW001 BKN002 BKN003 09/08 Q1008 RMK 1ST001 5ST002 7ST003 A2977
RJCC 141430Z 34010KT 3000 -DZ BR FEW001 BKN002 BKN003 09/08 Q1008 RMK 1ST001 5ST002 7ST003 A2978
RJCC 141500Z 34010KT 3000 -DZ BR FEW001 BKN002 BKN003 09/09 Q1008 RMK 1ST001 5ST002 7ST003 A2978
RJCC 141522Z 34011KT 4500 -DZ BR FEW001 BKN003 09/08 Q1008 RMK 1ST001 7ST003 A2978
RJCC 141530Z 34010KT 5000 -DZ BR FEW002 BKN003 09/08 Q1008 RMK 1ST002 7ST003 A2978
RJCC 141600Z 33011KT 8000 FEW002 SCT003 BKN005 09/08 Q1008 RMK 1ST002 4ST003 7ST005 A2978
RJCC 141630Z 33010KT 8000 FEW003 BKN006 10/08 Q1008 RMK 2ST003 7ST006 A2978
RJCC 141700Z 32011KT 8000 FEW003 BKN006 09/08 Q1008 RMK 1ST003 7ST006 A2978
RJCC 141730Z 32010KT 8000 FEW003 BKN006 09/08 Q1008 RMK 1ST003 7ST006 A2979
RJCC 141800Z 34008KT 8000 FEW003 SCT005 BKN006 09/08 Q1008 RMK 1ST003 3ST005 7ST006 A2979
RJCC 141830Z 34008KT 8000 FEW003 SCT004 BKN005 09/08 Q1009 RMK 1ST003 3ST004 7ST005 A2980
RJCC 141900Z 34006KT 7000 FEW003 BKN004 BKN005 09/08 Q1009 RMK 1ST003 6ST004 7ST005 A2980
RJCC 141930Z 35004KT 5000 BR FEW003 BKN004 09/08 Q1009 RMK 2ST003 7ST004 A2980
-3
RJCC 142000Z 35003KT 280V050 6000 FEW003 BKN004 09/08 Q1009 RMK 1ST003 7ST004 A2981
RJCC 142023Z VRB02KT 7000 FEW003 SCT004 BKN005 09/08 Q1009 RMK 1ST003 4ST004 7ST005 A2982
RJCC 142030Z 25003KT 220V310 5000 BR FEW003 SCT004 BKN005 09/08 Q1009 RMK 1ST003 3ST004 7ST005 A2982
RJCC 142100Z 27003KT 8000 FEW003 SCT004 BKN005 09/08 Q1010 RMK 1ST003 3ST004 7ST005 A2983
RJCC 142130Z VRB02KT 9999 FEW004 BKN005 09/08 Q1010 RMK 2ST004 7ST005 A2983
RJCC 142137Z VRB02KT 9999 FEW004 SCT005 10/08 Q1010 RMK 1ST004 4ST005 A2983
RJCC 142200Z VRB02KT 9999 FEW005 11/09 Q1010 RMK 1ST005 A2982
RJCC 142230Z 16006KT 120V200 9999 FEW005 12/09 Q1010 RMK 1ST005 A2982
RJCC 142300Z 17007KT 9999 FEW010 14/08 Q1009 RMK 1ST010 A2982
RJCC 142330Z 15009KT 9999 FEW010 SCT/// 15/08 Q1009 RMK 1ST010 A2982
2018年5月15日00-24UTC 新千歳空港METAR -1

RJCC 150000Z 17011KT 9999 FEW015 SCT/// 16/08 Q1009 RMK 1ST015 A2982
RJCC 150030Z 17012KT 9999 FEW015 SCT/// 15/09 Q1009 RMK 1ST015 A2981
RJCC 150100Z 18013KT 9999 FEW015 SCT/// 16/09 Q1009 RMK 1ST015 A2981
RJCC 150130Z 17011KT 140V200 9999 FEW020 15/09 Q1009 RMK 1CU020 A2981
RJCC 150200Z 17014KT 9999 FEW020 15/08 Q1009 RMK 1CU020 A2980
RJCC 150230Z 17014KT 9999 FEW020 SCT/// 16/09 Q1009 RMK 1CU020 A2980
RJCC 150300Z 17016KT 9999 FEW020 16/09 Q1009 RMK 1CU020 A2979
RJCC 150330Z 17015KT 9999 FEW020 17/09 Q1008 RMK 1CU020 A2978
RJCC 150400Z 17015KT 9999 FEW030 17/10 Q1008 RMK 1CU030 A2978
RJCC 150430Z 16015KT 9999 FEW030 17/09 Q1007 RMK 1CU030 A2976
RJCC 150500Z 17016KT 9999 FEW030 SCT/// 18/10 Q1007 RMK 1CU030 A2976
RJCC 150530Z 16016KT 9999 FEW030 18/10 Q1007 RMK 1CU030 A2974
RJCC 150600Z 17016KT 9999 FEW030 17/09 Q1006 RMK 1CU030 A2973
RJCC 150630Z 17019KT 9999 FEW030 17/09 Q1006 RMK 1CU030 A2972
RJCC 150700Z 17016KT 9999 FEW030 17/10 Q1006 RMK 1CU030 A2973
RJCC 150730Z 16014KT 9999 FEW030 SCT/// 17/09 Q1007 RMK 1CU030 A2974
RJCC 150800Z 17014KT 9999 FEW030 BKN/// 17/10 Q1007 RMK 1CU030 A2975
RJCC 150830Z 18015KT 9999 FEW030 BKN/// 16/09 Q1007 RMK 1CU030 A2974
RJCC 150900Z 18013KT 9999 FEW030 BKN/// 16/10 Q1007 RMK 1CU030 A2976
RJCC 150930Z 17012KT CAVOK 15/09 Q1007 RMK A2976
RJCC 151000Z 18013KT CAVOK 14/09 Q1007 RMK A2976
RJCC 151030Z 17010KT CAVOK 14/09 Q1008 RMK A2977
RJCC 151100Z 16013KT 9999 FEW040 BKN070 BKN/// 12/09 Q1008 RMK 1CU040 5AC070 A2978
RJCC 151130Z 17010KT 9999 FEW040 BKN/// 11/09 Q1008 RMK 1CU040 A2978
RJCC 151200Z 17009KT 9999 FEW040 BKN/// 11/09 Q1008 RMK 1CU040 A2979
RJCC 151230Z 18007KT 9999 FEW040 BKN/// 11/09 Q1008 RMK 1CU040 A2977
RJCC 151300Z 18008KT 9999 FEW040 BKN/// 11/09 Q1007 RMK 1CU040 A2976
RJCC 151330Z 17010KT 9999 FEW040 BKN/// 12/09 Q1007 RMK 1CU040 A2976
RJCC 151400Z 17008KT 9999 FEW040 BKN/// 11/09 Q1008 RMK 1CU040 A2977
RJCC 151430Z 17008KT 9999 FEW040 BKN/// 11/08 Q1007 RMK 1CU040 A2975
-2
RJCC 151500Z 16008KT 9999 FEW040 BKN/// 11/08 Q1007 RMK 1CU040 A2974
RJCC 151530Z 16010KT 9999 FEW040 SCT/// 11/08 Q1007 RMK 1CU040 A2974
RJCC 151600Z 15009KT 9999 FEW040 SCT/// 11/08 Q1007 RMK 1CU040 A2974
RJCC 151630Z 14008KT 9999 FEW040 SCT/// 11/09 Q1007 RMK 1CU040 A2974
RJCC 151700Z 15008KT 9999 FEW040 SCT/// 11/09 Q1007 RMK 1CU040 A2974
RJCC 151730Z 15007KT 9999 FEW040 SCT/// 11/09 Q1007 RMK 1CU040 A2974
RJCC 151800Z 15007KT 9999 FEW040 SCT/// 11/09 Q1007 RMK 1CU040 A2975
RJCC 151830Z 16007KT 9999 FEW040 SCT/// 11/09 Q1007 RMK 1CU040 A2974
RJCC 151900Z 16006KT CAVOK 10/09 Q1007 RMK A2974
RJCC 151930Z 16005KT CAVOK 10/09 Q1007 RMK A2974
RJCC 152000Z 20004KT CAVOK 11/09 Q1007 RMK A2974
RJCC 152030Z 21003KT CAVOK 12/09 Q1007 RMK A2975
RJCC 152100Z 18005KT CAVOK 13/10 Q1007 RMK A2974
RJCC 152130Z 16010KT CAVOK 15/11 Q1007 RMK A2974
RJCC 152200Z 16011KT CAVOK 16/10 Q1007 RMK A2974
RJCC 152230Z 17013KT CAVOK 17/11 Q1007 RMK A2974
RJCC 152300Z 17013KT CAVOK 16/11 Q1007 RMK A2975
RJCC 152330Z 16015KT CAVOK 17/11 Q1007 RMK A2976
2018年5月16日00-24UTC 新千歳空港METAR -1

RJCC 160000Z 16015KT CAVOK 17/11 Q1007 RMK A2975
RJCC 160030Z 16015KT CAVOK 18/11 Q1007 RMK A2974
RJCC 160100Z 17015KT CAVOK 19/12 Q1007 RMK A2975
RJCC 160130Z 16014KT CAVOK 19/12 Q1007 RMK A2974
RJCC 160200Z 18015KT CAVOK 19/12 Q1006 RMK A2973
RJCC 160230Z 16014KT CAVOK 20/12 Q1006 RMK A2972
RJCC 160300Z 18016KT CAVOK 21/12 Q1006 RMK A2971
RJCC 160330Z 17016KT CAVOK 21/12 Q1005 RMK A2970
RJCC 160400Z 17015KT CAVOK 21/12 Q1005 RMK A2969
RJCC 160430Z 17016KT CAVOK 20/12 Q1004 RMK A2967
RJCC 160500Z 16015KT CAVOK 21/13 Q1004 RMK A2966
RJCC 160530Z 17016KT CAVOK 21/13 Q1004 RMK A2966
RJCC 160600Z 18017KT CAVOK 20/13 Q1004 RMK A2965
RJCC 160630Z 17017KT CAVOK 21/13 Q1004 RMK A2965
RJCC 160700Z 17015KT CAVOK 20/13 Q1004 RMK A2965
RJCC 160730Z 17015KT CAVOK 19/12 Q1004 RMK A2965
RJCC 160800Z 17015KT 8000 NSC 18/12 Q1003 RMK 1AC150 A2964
RJCC 160830Z 18016KT 8000 NSC 16/11 Q1004 RMK 1AC150 A2965
RJCC 160900Z 17013KT CAVOK 15/11 Q1004 RMK A2965
RJCC 160930Z 17013KT 9999 FEW040 SCT120 BKN/// 15/11 Q1003 RMK 1CU040 3AC120 A2964
RJCC 161000Z 16013KT 8000 FEW040 SCT100 BKN/// 15/11 Q1003 RMK 1CU040 4AC100 A2964
RJCC 161030Z 16016KT 7000 FEW040 SCT110 BKN/// 14/10 Q1003 RMK 1CU040 4AC110 A2963
RJCC 161100Z 15013KT 9999 FEW040 BKN110 14/10 Q1003 RMK 1CU040 7AC110 A2963
RJCC 161130Z 15011KT 9999 FEW040 BKN120 BKN/// 14/10 Q1003 RMK 1CU040 5AC120 A2963
RJCC 161200Z 15012KT 9999 FEW040 BKN120 15/10 Q1003 RMK 1CU040 6AC120 A2963
RJCC 161230Z 15013KT 9999 FEW040 BKN120 14/11 Q1002 RMK 1CU040 6AC120 A2961
RJCC 161300Z 14011KT 9999 FEW007 SCT120 14/12 Q1002 RMK 1ST007 4AC120 A2961
RJCC 161330Z 14015KT 8000 FEW007 BKN010 BKN100 15/12 Q1002 RMK 1ST007 5ST010 6AC100 A2961
RJCC 161346Z 14015KT 8000 FEW005 BKN007 BKN100 14/12 Q1002 RMK 1ST005 5ST007 6AC100 A2961
RJCC 161400Z 15015KT 6000 FEW005 BKN007 14/12 Q1002 RMK 1ST005 7ST007 A2961
RJCC 161430Z 15011KT 6000 FEW005 SCT006 BKN007 14/12 Q1002 RMK 1ST005 3ST006 7ST007 A2960
-2
RJCC 161500Z 16009KT 6000 FEW005 SCT007 BKN035 14/12 Q1002 RMK 1ST005 3ST007 7CU035 A2959
RJCC 161530Z 14009KT 7000 FEW007 BKN035 14/12 Q1001 RMK 1ST007 7CU035 A2958
RJCC 161600Z 14009KT 7000 FEW010 BKN030 14/13 Q1001 RMK 1ST010 7CU030 A2956
RJCC 161630Z 16010KT 7000 FEW010 BKN030 14/13 Q1001 RMK 1ST010 7CU030 A2957
RJCC 161700Z 15012KT 6000 -SHRA FEW005 BKN035 14/13 Q1001 RMK 2ST005 7CU035 A2956
RJCC 161730Z 15012KT 6000 FEW003 SCT005 BKN035 14/13 Q1000 RMK 1ST003 4ST005 6CU035 A2955
RJCC 161800Z 14009KT 6000 FEW003 BKN004 BKN/// 14/13 Q1000 RMK 1ST003 5ST004 A2955
RJCC 161830Z 16009KT 6000 FEW003 BKN005 BKN035 14/13 Q1000 RMK 1ST003 5ST005 6CU035 A2955
RJCC 161900Z 15013KT 5000 BR FEW003 BKN005 BKN035 14/13 Q1000 RMK 1ST003 6ST005 7CU035 A2953
RJCC 161930Z 15009KT 5000 BR FEW003 BKN006 14/13 Q1000 RMK 1ST003 7ST006 A2953
RJCC 162000Z 16009KT 4000 BR FEW003 BKN005 14/13 Q1000 RMK 1ST003 7ST005 A2954
RJCC 162030Z 15010KT 4000 -DZ BR FEW003 BKN004 14/13 Q0999 RMK 2ST003 7ST004 A2952
RJCC 162100Z 16009KT 4000 -DZ BR FEW002 BKN003 BKN004 14/14 Q0999 RMK 1ST002 5ST003 7ST004 A2953
RJCC 162130Z 16010KT 4500 -SHRA BR FEW002 SCT003 BKN004 15/14 Q0999 RMK 1ST002 4ST003 7ST004 A2952
RJCC 162200Z 18006KT 4500 -SHRA BR FEW002 BKN003 BKN004 15/14 Q1000 RMK 1ST002 5ST003 7ST004 A2953
RJCC 162230Z 17012KT 4500 -SHRA BR FEW002 BKN003 14/13 Q0999 RMK 1ST002 7ST003 A2952
RJCC 162246Z 15012KT 5000 BR FEW002 BKN003 BKN004 15/13 Q0999 RMK 1ST002 5ST003 6ST004 A2952
RJCC 162300Z 18008KT 7000 -SHRA FEW002 BKN004 BKN005 14/13 Q1000 RMK 1ST002 5ST004 7ST005 A2954
RJCC 162311Z 18007KT 6000 -SHRA FEW003 SCT004 BKN005 14/13 Q1000 RMK 1ST003 4ST004 6ST005 A2955 P/RR
RJCC 162326Z 25005KT 190V300 4900 -SHRA BR FEW003 BKN005 BKN006 14/13 Q1001 RMK 1ST003 5ST005 7ST006 A2956
RJCC 162330Z 27006KT 220V300 4500 -SHRA BR FEW003 BKN005 BKN006 14/13 Q1001 RMK 1ST003 5ST005 7ST006 A2956
RJCC 162339Z 32010KT 5000 -SHRA BR FEW003 SCT005 BKN006 14/13 Q1001 RMK 1ST003 4ST005 6ST006 A2957
2018年5月17日00-24UTC 新千歳空港METAR -1

RJCC 170000Z 34015KT 9999 -SHRA FEW005 BKN007 BKN010 13/12 Q1001 RMK 1ST005 5ST007 7ST010 A2958
RJCC 170030Z 35010KT 9999 -SHRA FEW006 BKN008 BKN018 13/12 Q1001 RMK 1ST006 5ST008 7ST018 A2958
RJCC 170100Z 35017KT 9999 FEW006 SCT008 BKN010 13/11 Q1002 RMK 1ST006 3ST008 6ST010 A2959
RJCC 170130Z 34019KT 9999 FEW010 SCT015 BKN045 12/09 Q1002 RMK 2ST010 3ST015 7CU045 A2960
RJCC 170200Z 35021KT 9999 FEW012 SCT035 BKN045 12/09 Q1003 RMK 1ST012 3CU035 7CU045 A2962
RJCC 170218Z 34022G32KT 9999 FEW012 SCT035 BKN045 13/08 Q1002 RMK 1ST012 4CU035 7CU045 A2961
RJCC 170230Z 34023G35KT 9999 FEW012 SCT035 BKN050 13/08 Q1003 RMK 1ST012 4CU035 7CU050 A2962
RJCC 170300Z 34024KT 9999 FEW012 SCT035 BKN060 14/08 Q1003 RMK 1ST012 4CU035 7CU060 A2962
RJCC 170330Z 33023KT 9999 FEW012 BKN030 16/08 Q1003 RMK 1ST012 6CU030 A2962
RJCC 170400Z 34022KT 9999 FEW015 SCT020 BKN040 16/09 Q1003 RMK 1ST015 4CU020 6CU040 A2963
RJCC 170430Z 33023KT 9999 FEW020 16/08 Q1003 RMK 2CU020 A2964
RJCC 170433Z 33022G32KT 9999 FEW020 17/08 Q1003 RMK 2CU020 A2964
RJCC 170500Z 33023KT 9999 FEW020 16/08 Q1004 RMK 2CU020 A2965
RJCC 170530Z 33019KT 9999 FEW020 SCT/// 16/07 Q1004 RMK 1CU020 A2966
RJCC 170600Z 33021KT 9999 FEW020 BKN/// 16/06 Q1004 RMK 1CU020 A2967
RJCC 170630Z 32023KT 9999 FEW020 BKN/// 16/06 Q1004 RMK 1CU020 A2967
RJCC 170700Z 32021KT 9999 FEW030 BKN/// 16/05 Q1005 RMK 1CU030 A2968
RJCC 170730Z 33018KT 9999 FEW030 BKN/// 16/05 Q1005 RMK 1CU030 A2969
RJCC 170800Z 34017KT 9999 FEW030 BKN/// 15/05 Q1005 RMK 1CU030 A2970
RJCC 170830Z 34015KT 9999 FEW030 BKN/// 15/04 Q1006 RMK 1CU030 A2971
RJCC 170900Z 34015KT 9999 FEW030 BKN/// 14/04 Q1006 RMK 1CU030 A2973
RJCC 170930Z 34015KT 9999 FEW030 BKN/// 13/04 Q1007 RMK 1CU030 A2974
RJCC 171000Z 01009KT 9999 FEW030 BKN/// 12/04 Q1007 RMK 1CU030 A2976
RJCC 171030Z 01008KT 9999 FEW030 BKN/// 12/05 Q1008 RMK 1CU030 A2978
-2
RJCC 171100Z 36011KT 9999 FEW030 BKN/// 12/05 Q1008 RMK 1CU030 A2979
RJCC 171130Z 36009KT 9999 FEW030 BKN/// 11/04 Q1009 RMK 1CU030 A2980
RJCC 171200Z 35012KT 9999 FEW030 BKN/// 12/04 Q1009 RMK 1CU030 A2981
RJCC 171230Z 34015KT 9999 FEW030 SCT050 BKN/// 13/04 Q1009 RMK 1CU030 3CU050 A2982
RJCC 171300Z 34012KT 9999 FEW030 BKN050 13/04 Q1010 RMK 1CU030 7CU050 A2984
RJCC 171330Z 04007KT 010V070 9999 FEW030 BKN050 13/05 Q1011 RMK 1CU030 7CU050 A2986
RJCC 171400Z 11006KT 9999 FEW030 BKN050 12/06 Q1011 RMK 1CU030 7CU050 A2988
RJCC 171430Z 11005KT 9999 FEW025 BKN050 12/06 Q1012 RMK 1CU025 7CU050 A2989
RJCC 171500Z 16010KT 9999 FEW015 SCT025 BKN050 12/07 Q1012 RMK 1ST015 4CU025 7CU050 A2989
RJCC 171530Z 16011KT 9999 FEW015 BKN025 11/07 Q1012 RMK 1ST015 7CU025 A2989
RJCC 171600Z 17011KT 9999 FEW025 BKN045 11/07 Q1012 RMK 1CU025 7CU045 A2989
RJCC 171630Z 17011KT 9999 FEW015 SCT030 BKN050 10/07 Q1012 RMK 1ST015 4CU030 7CU050 A2990
RJCC 171700Z 17010KT 9999 FEW015 SCT030 BKN045 10/07 Q1012 RMK 1ST015 3CU030 7CU045 A2990
RJCC 171730Z 18010KT 9999 FEW015 BKN045 10/06 Q1012 RMK 1ST015 7CU045 A2990
RJCC 171800Z 18012KT 9999 FEW015 BKN040 10/06 Q1012 RMK 1ST015 7CU040 A2989
RJCC 171830Z 18011KT 9999 FEW015 SCT020 BKN045 10/06 Q1012 RMK 1ST015 4ST020 7CU045 A2990
RJCC 171900Z 19010KT 9999 FEW015 BKN020 10/06 Q1012 RMK 1ST015 7CU020 A2990
RJCC 171930Z 19010KT 9999 FEW015 SCT020 BKN050 10/06 Q1012 RMK 1ST015 3CU020 7SC050 A2990
RJCC 172000Z 18009KT 9999 FEW015 BKN020 10/06 Q1012 RMK 1ST015 7CU020 A2991
RJCC 172030Z 19009KT 9999 FEW015 BKN020 10/06 Q1013 RMK 1ST015 7CU020 A2992
-3
RJCC 172100Z 19008KT 9999 FEW010 BKN020 10/05 Q1013 RMK 1ST010 7CU020 A2993
RJCC 172130Z 20010KT 9999 FEW010 SCT015 BKN020 10/06 Q1013 RMK 1ST010 4ST015 7CU020 A2993
RJCC 172200Z 22011KT 9999 FEW010 BKN015 BKN020 10/06 Q1013 RMK 1ST010 5ST015 7CU020 A2993
RJCC 172230Z 20010KT 9999 FEW010 SCT012 BKN015 09/06 Q1013 RMK 1ST010 3ST012 7ST015 A2992
RJCC 172300Z 19010KT 9999 FEW008 BKN012 09/06 Q1013 RMK 1ST008 7ST012 A2992
RJCC 172330Z 18013KT 9999 FEW008 BKN012 09/06 Q1013 RMK 1ST008 7ST012 A2992
2018年5月18日00-24UTC 新千歳空港METAR -1

RJCC 180000Z 19013KT 9999 FEW008 BKN012 09/06 Q1013 RMK 1ST008 7ST012 A2992
RJCC 180030Z 19013KT 9999 FEW007 BKN009 BKN012 09/06 Q1013 RMK 1ST007 5ST009 7ST012 A2992
RJCC 180100Z 19014KT 9999 -SHRA FEW006 BKN008 09/06 Q1013 RMK 1ST006 7ST008 A2992
RJCC 180130Z 18015KT 9999 -SHRA FEW007 BKN009 08/06 Q1012 RMK 1ST007 7ST009 A2991
RJCC 180200Z 18016KT 9999 -SHRA FEW007 BKN009 08/06 Q1012 RMK 1ST007 7ST009 A2991
RJCC 180230Z 18014KT 9999 FEW007 BKN009 BKN012 08/05 Q1013 RMK 1ST007 5ST009 7ST012 A2991
RJCC 180236Z 18015KT 9999 FEW007 BKN010 BKN012 08/06 Q1012 RMK 1ST007 5ST010 7ST012 A2991
RJCC 180300Z 18013KT 9999 -SHRA FEW007 BKN010 BKN012 08/05 Q1012 RMK 1ST007 5ST010 7ST012 A2991
RJCC 180330Z 17013KT 9999 -SHRA FEW007 BKN010 BKN012 08/05 Q1012 RMK 1ST007 5ST010 7ST012 A2990
RJCC 180400Z 17014KT 9999 -SHRA FEW007 BKN010 08/06 Q1012 RMK 1ST007 7ST010 A2989
RJCC 180430Z 19011KT 9999 -SHRA FEW007 BKN010 07/06 Q1012 RMK 1ST007 7ST010 A2989
RJCC 180441Z 19011KT 9999 -SHRA FEW007 BKN009 07/06 Q1012 RMK 1ST007 7ST009 A2989
RJCC 180500Z 19010KT 8000 -SHRA FEW007 BKN009 BKN012 07/06 Q1011 RMK 1ST007 6ST009 7ST012 A2988
RJCC 180530Z 18010KT 7000 -SHRA FEW004 BKN007 BKN010 07/06 Q1011 RMK 1ST004 6ST007 7ST010 A2987
RJCC 180600Z 19009KT 7000 -SHRA FEW004 BKN007 07/06 Q1011 RMK 1ST004 7ST007 A2987
RJCC 180630Z 19009KT 7000 -SHRA FEW004 BKN007 07/05 Q1011 RMK 1ST004 7ST007 A2986
RJCC 180700Z 20005KT 8000 -SHRA FEW004 SCT007 BKN012 06/06 Q1011 RMK 1ST004 4ST007 5ST012 A2986 MOD TURB OBS AT 0640Z 30NM S RJCC BTN 9000FT AND 11000FT IN CMB B772
RJCC 180730Z 22005KT 5000 -SHRA BR FEW004 SCT006 BKN010 06/06 Q1011 RMK 1ST004 4ST006 6ST010 A2987
RJCC 180800Z 27004KT 230V320 5000 -SHRA BR FEW004 BKN008 BKN012 06/06 Q1011 RMK 1ST004 5ST008 7ST012 A2988
RJCC 180819Z 23006KT 4900 -SHRA BR FEW006 SCT008 BKN025 06/06 Q1011 RMK 1ST006 4ST008 7CU025 A2987
RJCC 180830Z 23004KT 190V260 4500 -SHRA BR FEW006 SCT008 BKN025 06/06 Q1011 RMK 1ST006 4ST008 7CU025 A2988
-2
RJCC 180845Z 25003KT 230V310 4500 -SHRA BR FEW004 BKN006 BKN020 06/06 Q1011 RMK 1ST004 5ST006 7CU020 A2987
RJCC 180900Z 23005KT 190V250 6000 -SHRA FEW004 BKN006 BKN020 06/06 Q1011 RMK 1ST004 5ST006 7CU020 A2986
RJCC 180930Z 20004KT 6000 -SHRA FEW004 BKN006 BKN020 06/06 Q1010 RMK 1ST004 6ST006 7CU020 A2984
RJCC 181000Z VRB01KT 5000 -SHRA BR FEW004 BKN006 BKN020 06/06 Q1010 RMK 2ST004 6ST006 7CU020 A2983
RJCC 181030Z 26006KT 180V280 5000 -SHRA BR FEW004 SCT006 BKN020 06/06 Q1010 RMK 1ST004 3ST006 6CU020 A2984
RJCC 181100Z 29003KT 250V330 8000 -SHRA FEW006 SCT020 BKN060 06/06 Q1010 RMK 1ST006 4CU020 7CU060 A2984
RJCC 181130Z 31004KT 200V010 8000 -SHRA FEW006 SCT040 BKN060 06/06 Q1010 RMK 1ST006 3CU040 7CU060 A2983
RJCC 181200Z 30004KT 240V320 9999 -SHRA FEW006 SCT040 BKN060 06/06 Q1010 RMK 1ST006 4CU040 7CU060 A2982
RJCC 181230Z 25004KT 9999 -SHRA FEW006 BKN030 BKN060 06/06 Q1009 RMK 1ST006 5CU030 7CU060 A2982
RJCC 181300Z 25004KT 9999 -SHRA FEW006 BKN030 BKN060 06/06 Q1009 RMK 1ST006 5CU030 7CU060 A2982
RJCC 181330Z 22003KT 9999 -SHRA FEW006 SCT030 BKN060 06/06 Q1009 RMK 1ST006 3CU030 7CU060 A2982
RJCC 181400Z 22002KT 9999 -SHRA FEW006 SCT030 BKN050 06/06 Q1009 RMK 1ST006 3CU030 7CU050 A2981
RJCC 181430Z 24003KT 9999 -SHRA FEW006 SCT030 BKN050 06/06 Q1009 RMK 1ST006 3CU030 7CU050 A2980
RJCC 181500Z 24003KT 9999 -SHRA FEW006 SCT030 BKN050 06/06 Q1009 RMK 1ST006 3CU030 7CU050 A2979
RJCC 181530Z VRB01KT 9999 -SHRA FEW006 SCT030 BKN060 06/06 Q1008 RMK 1ST006 3CU030 7CU060 A2978
RJCC 181600Z 21003KT 9999 -SHRA FEW006 SCT030 BKN050 06/06 Q1008 RMK 1ST006 4CU030 7CU050 A2977
RJCC 181630Z 22003KT 190V250 9999 -SHRA FEW006 SCT030 BKN060 06/06 Q1007 RMK 1ST006 3CU030 7CU060 A2975
RJCC 181700Z 29003KT 9999 -SHRA FEW006 SCT030 BKN060 06/06 Q1007 RMK 1ST006 3CU030 7CU060 A2974
RJCC 181730Z 30005KT 9999 -SHRA FEW006 SCT030 BKN060 07/06 Q1007 RMK 1ST006 3CU030 7CU060 A2975
-3
RJCC 181800Z 31006KT 8000 -SHRA FEW006 SCT030 BKN050 07/06 Q1007 RMK 1ST006 3CU030 7CU050 A2975
RJCC 181830Z 33006KT 9999 -SHRA FEW006 BKN050 07/06 Q1007 RMK 1ST006 7CU050 A2975
RJCC 181900Z 35006KT 9999 -SHRA FEW006 BKN060 07/06 Q1007 RMK 1ST006 7CU060 A2975
RJCC 181930Z 34008KT 9999 -SHRA FEW006 SCT030 BKN060 07/06 Q1007 RMK 1ST006 3CU030 6CU060 A2975
RJCC 182000Z 32009KT 9999 -SHRA FEW006 SCT030 BKN060 07/06 Q1008 RMK 1ST006 3CU030 6CU060 A2977
RJCC 182030Z 33010KT 9999 -SHRA BR FEW006 BKN030 BKN060 08/06 Q1008 RMK 1ST006 5CU030 7CU060 A2977 5000W-NW
RJCC 182100Z 34013KT 9999 -SHRA FEW006 SCT030 BKN060 08/07 Q1008 RMK 1ST006 3CU030 7CU060 A2977
RJCC 182130Z 34012KT 9999 -SHRA FEW006 SCT050 BKN100 08/07 Q1008 RMK 1ST006 3CU050 7AC100 A2978
RJCC 182200Z 33011KT 9999 -SHRA FEW006 SCT050 BKN080 08/07 Q1008 RMK 1ST006 4CU050 7AC080 A2979
RJCC 182230Z 33011KT 9999 -SHRA FEW005 BKN045 BKN080 08/07 Q1009 RMK 1ST005 5CU045 7AC080 A2980
RJCC 182300Z 34010KT 9999 -SHRA FEW005 BKN040 BKN060 08/06 Q1009 RMK 1ST005 5CU040 7CU060 A2981
RJCC 182330Z 33010KT 9999 -SHRA FEW005 BKN045 BKN060 08/07 Q1009 RMK 1ST005 5CU045 7CU060 A2982

ログインすると、残り340件のコメントが見れるよ

mixiユーザー
ログインしてコメントしよう!

RJCCのMETAR・TAF 愛好会 更新情報

RJCCのMETAR・TAF 愛好会のメンバーはこんなコミュニティにも参加しています

星印の数は、共通して参加しているメンバーが多いほど増えます。

人気コミュニティランキング

mixiチケット決済